PWSweather.com
Personal Weather Stations
Station Observations
KD5LEN
Ktxnorth1, North Richland Hills, TX 76180

Ktxnorth1North Richland Hills, TX 76180

Lat: 32.885294, Lon: -97.236048

Elevation: 694

Station Type: Vantage Pro 2

http://www.atzer0.net/VWS/root/index.htm

High Low Average
Temperature 74.4°F23.6°C 55.3°F12.9°C 65.4°F18.6°C
Dew Point 61.9°F16.6°C 11.1°F-11.6°C 47.7°F8.7°C
Winds 22.0 mph 35.4 kmh Calm Calm 6.0 mph S9.7 kmh S
Wind Gusts 25.0 mph40.2 kmh 2.0 mph3.2 kmh 11.0 mph17.7 kmh
Humidity 79% 14% 57%
Pressure 29.91 in1012.9 mb 29.42 in996.3 mb -
Precipitation 0.00 in0.0 mm - -
Hour Temp Dew Point Humidity Winds Wind Gusts Pressure Precip Precip Rate Daily Precip Total
12:00 AM 57.9°F14.4°C 37.3°F2.9°C 46% 3.0 mph NE4.8 kmh NE 3.0 mph4.8 kmh 29.50 in999.0 mb 0.00 in0.0 mm 0.00 in0.0 mm 0.00 in0.0 mm
12:02 AM 58.0°F14.4°C 37.4°F3.0°C 46% 2.0 mph NE3.2 kmh NE 3.0 mph4.8 kmh 29.51 in999.3 mb 0.00 in0.0 mm 0.00 in0.0 mm 0.00 in0.0 mm
12:04 AM 58.0°F14.4°C 37.4°F3.0°C 46% 2.0 mph NE3.2 kmh NE 2.0 mph3.2 kmh 29.50 in999.0 mb 0.00 in0.0 mm 0.00 in0.0 mm 0.00 in0.0 mm
12:06 AM 58.1°F14.5°C 37.5°F3.1°C 46% Calm Calm 2.0 mph3.2 kmh 29.51 in999.3 mb 0.00 in0.0 mm 0.00 in0.0 mm 0.00 in0.0 mm
12:08 AM 58.0°F14.4°C 37.4°F3.0°C 46% 1.0 mph NE1.6 kmh NE 2.0 mph3.2 kmh 29.51 in999.3 mb 0.00 in0.0 mm 0.00 in0.0 mm 0.00 in0.0 mm
12:10 AM 58.0°F14.4°C 37.9°F3.3°C 47% 2.0 mph NE3.2 kmh NE 2.0 mph3.2 kmh 29.51 in999.3 mb 0.00 in0.0 mm 0.00 in0.0 mm 0.00 in0.0 mm
12:12 AM 58.1°F14.5°C 38.0°F3.3°C 47% 2.0 mph NE3.2 kmh NE 3.0 mph4.8 kmh 29.51 in999.3 mb 0.00 in0.0 mm 0.00 in0.0 mm 0.00 in0.0 mm
12:14 AM 58.1°F14.5°C 38.0°F3.3°C 47% 1.0 mph NE1.6 kmh NE 3.0 mph4.8 kmh 29.51 in999.3 mb 0.00 in0.0 mm 0.00 in0.0 mm 0.00 in0.0 mm
12:16 AM 58.0°F14.4°C 37.9°F3.3°C 47% 2.0 mph NE3.2 kmh NE 3.0 mph4.8 kmh 29.51 in999.3 mb 0.00 in0.0 mm 0.00 in0.0 mm 0.00 in0.0 mm
12:18 AM 58.0°F14.4°C 37.9°F3.3°C 47% 2.0 mph NE3.2 kmh NE 3.0 mph4.8 kmh 29.51 in999.3 mb 0.00 in0.0 mm 0.00 in0.0 mm 0.00 in0.0 mm
12:20 AM 58.0°F14.4°C 37.9°F3.3°C 47% 1.0 mph NE1.6 kmh NE 3.0 mph4.8 kmh 29.50 in999.0 mb 0.00 in0.0 mm 0.00 in0.0 mm 0.00 in0.0 mm
12:22 AM 58.0°F14.4°C 37.9°F3.3°C 47% 2.0 mph NE3.2 kmh NE 3.0 mph4.8 kmh 29.50 in999.0 mb 0.00 in0.0 mm 0.00 in0.0 mm 0.00 in0.0 mm
12:24 AM 57.9°F14.4°C 37.8°F3.2°C 47% 1.0 mph ENE1.6 kmh ENE 3.0 mph4.8 kmh 29.50 in999.0 mb 0.00 in0.0 mm 0.00 in0.0 mm 0.00 in0.0 mm
12:26 AM 57.8°F14.3°C 38.3°F3.5°C 48% 2.0 mph ENE3.2 kmh ENE 4.0 mph6.4 kmh 29.50 in999.0 mb 0.00 in0.0 mm 0.00 in0.0 mm 0.00 in0.0 mm
12:28 AM 57.9°F14.4°C 38.4°F3.6°C 48% Calm Calm 4.0 mph6.4 kmh 29.50 in999.0 mb 0.00 in0.0 mm 0.00 in0.0 mm 0.00 in0.0 mm
12:30 AM 57.8°F14.3°C 38.3°F3.5°C 48% 1.0 mph ENE1.6 kmh ENE 4.0 mph6.4 kmh 29.50 in999.0 mb 0.00 in0.0 mm 0.00 in0.0 mm 0.00 in0.0 mm
12:32 AM 57.8°F14.3°C 38.3°F3.5°C 48% Calm Calm 4.0 mph6.4 kmh 29.51 in999.3 mb 0.00 in0.0 mm 0.00 in0.0 mm 0.00 in0.0 mm
12:34 AM 57.8°F14.3°C 38.3°F3.5°C 48% 1.0 mph ENE1.6 kmh ENE 3.0 mph4.8 kmh 29.50 in999.0 mb 0.00 in0.0 mm 0.00 in0.0 mm 0.00 in0.0 mm
12:36 AM 57.8°F14.3°C 38.3°F3.5°C 48% 1.0 mph E1.6 kmh E 3.0 mph4.8 kmh 29.50 in999.0 mb 0.00 in0.0 mm 0.00 in0.0 mm 0.00 in0.0 mm
12:38 AM 57.9°F14.4°C 38.4°F3.6°C 48% 2.0 mph E3.2 kmh E 3.0 mph4.8 kmh 29.50 in999.0 mb 0.00 in0.0 mm 0.00 in0.0 mm 0.00 in0.0 mm
12:40 AM 57.9°F14.4°C 38.4°F3.6°C 48% 2.0 mph E3.2 kmh E 3.0 mph4.8 kmh 29.50 in999.0 mb 0.00 in0.0 mm 0.00 in0.0 mm 0.00 in0.0 mm
12:42 AM 57.9°F14.4°C 38.4°F3.6°C 48% 3.0 mph ESE4.8 kmh ESE 3.0 mph4.8 kmh 29.50 in999.0 mb 0.00 in0.0 mm 0.00 in0.0 mm 0.00 in0.0 mm
12:44 AM 58.0°F14.4°C 38.4°F3.6°C 48% 1.0 mph E1.6 kmh E 4.0 mph6.4 kmh 29.50 in999.0 mb 0.00 in0.0 mm 0.00 in0.0 mm 0.00 in0.0 mm
12:46 AM 58.0°F14.4°C 38.4°F3.6°C 48% 1.0 mph ESE1.6 kmh ESE 4.0 mph6.4 kmh 29.49 in998.6 mb 0.00 in0.0 mm 0.00 in0.0 mm 0.00 in0.0 mm
12:48 AM 58.1°F14.5°C 38.5°F3.6°C 48% 2.0 mph ESE3.2 kmh ESE 4.0 mph6.4 kmh 29.49 in998.6 mb 0.00 in0.0 mm 0.00 in0.0 mm 0.00 in0.0 mm
12:50 AM 58.1°F14.5°C 38.5°F3.6°C 48% 2.0 mph ESE3.2 kmh ESE 4.0 mph6.4 kmh 29.49 in998.6 mb 0.00 in0.0 mm 0.00 in0.0 mm 0.00 in0.0 mm
12:52 AM 58.1°F14.5°C 38.5°F3.6°C 48% 3.0 mph ESE4.8 kmh ESE 4.0 mph6.4 kmh 29.49 in998.6 mb 0.00 in0.0 mm 0.00 in0.0 mm 0.00 in0.0 mm
12:54 AM 58.1°F14.5°C 38.5°F3.6°C 48% 3.0 mph ESE4.8 kmh ESE 4.0 mph6.4 kmh 29.49 in998.6 mb 0.00 in0.0 mm 0.00 in0.0 mm 0.00 in0.0 mm
12:56 AM 58.2°F14.6°C 38.6°F3.7°C 48% 2.0 mph E3.2 kmh E 4.0 mph6.4 kmh 29.49 in998.6 mb 0.00 in0.0 mm 0.00 in0.0 mm 0.00 in0.0 mm
12:58 AM 58.2°F14.6°C 38.6°F3.7°C 48% 2.0 mph ESE3.2 kmh ESE 4.0 mph6.4 kmh 29.49 in998.6 mb 0.00 in0.0 mm 0.00 in0.0 mm 0.00 in0.0 mm
01:00 AM 58.2°F14.6°C 38.6°F3.7°C 48% 2.0 mph ESE3.2 kmh ESE 4.0 mph6.4 kmh 29.49 in998.6 mb 0.00 in0.0 mm 0.00 in0.0 mm 0.00 in0.0 mm
01:02 AM 58.2°F14.6°C 38.6°F3.7°C 48% 3.0 mph ESE4.8 kmh ESE 4.0 mph6.4 kmh 29.49 in998.6 mb 0.00 in0.0 mm 0.00 in0.0 mm 0.00 in0.0 mm
01:04 AM 58.2°F14.6°C 38.6°F3.7°C 48% 3.0 mph E4.8 kmh E 4.0 mph6.4 kmh 29.49 in998.6 mb 0.00 in0.0 mm 0.00 in0.0 mm 0.00 in0.0 mm
01:06 AM 58.1°F14.5°C 38.5°F3.6°C 48% 3.0 mph E4.8 kmh E 7.0 mph11.3 kmh 29.49 in998.6 mb 0.00 in0.0 mm 0.00 in0.0 mm 0.00 in0.0 mm
01:08 AM 58.1°F14.5°C 39.1°F3.9°C 49% 4.0 mph E6.4 kmh E 7.0 mph11.3 kmh 29.48 in998.3 mb 0.00 in0.0 mm 0.00 in0.0 mm 0.00 in0.0 mm
01:10 AM 58.1°F14.5°C 39.1°F3.9°C 49% 3.0 mph SE4.8 kmh SE 7.0 mph11.3 kmh 29.49 in998.6 mb 0.00 in0.0 mm 0.00 in0.0 mm 0.00 in0.0 mm
01:12 AM 58.1°F14.5°C 39.1°F3.9°C 49% 2.0 mph ESE3.2 kmh ESE 7.0 mph11.3 kmh 29.49 in998.6 mb 0.00 in0.0 mm 0.00 in0.0 mm 0.00 in0.0 mm
01:14 AM 58.1°F14.5°C 39.1°F3.9°C 49% 4.0 mph SE6.4 kmh SE 7.0 mph11.3 kmh 29.49 in998.6 mb 0.00 in0.0 mm 0.00 in0.0 mm 0.00 in0.0 mm
01:16 AM 58.1°F14.5°C 39.1°F3.9°C 49% 1.0 mph ESE1.6 kmh ESE 7.0 mph11.3 kmh 29.49 in998.6 mb 0.00 in0.0 mm 0.00 in0.0 mm 0.00 in0.0 mm
01:18 AM 58.0°F14.4°C 39.0°F3.9°C 49% 2.0 mph ESE3.2 kmh ESE 7.0 mph11.3 kmh 29.48 in998.3 mb 0.00 in0.0 mm 0.00 in0.0 mm 0.00 in0.0 mm
01:20 AM 58.1°F14.5°C 39.1°F3.9°C 49% 1.0 mph SE1.6 kmh SE 7.0 mph11.3 kmh 29.48 in998.3 mb 0.00 in0.0 mm 0.00 in0.0 mm 0.00 in0.0 mm
01:22 AM 58.1°F14.5°C 39.6°F4.2°C 50% 2.0 mph SE3.2 kmh SE 7.0 mph11.3 kmh 29.48 in998.3 mb 0.00 in0.0 mm 0.00 in0.0 mm 0.00 in0.0 mm
01:24 AM 58.0°F14.4°C 39.5°F4.2°C 50% 1.0 mph SE1.6 kmh SE 7.0 mph11.3 kmh 29.48 in998.3 mb 0.00 in0.0 mm 0.00 in0.0 mm 0.00 in0.0 mm
01:26 AM 58.1°F14.5°C 39.6°F4.2°C 50% 3.0 mph SE4.8 kmh SE 7.0 mph11.3 kmh 29.48 in998.3 mb 0.00 in0.0 mm 0.00 in0.0 mm 0.00 in0.0 mm
01:28 AM 58.0°F14.4°C 39.5°F4.2°C 50% 4.0 mph SE6.4 kmh SE 7.0 mph11.3 kmh 29.48 in998.3 mb 0.00 in0.0 mm 0.00 in0.0 mm 0.00 in0.0 mm
01:30 AM 58.0°F14.4°C 40.0°F4.4°C 51% 2.0 mph SE3.2 kmh SE 7.0 mph11.3 kmh 29.47 in998.0 mb 0.00 in0.0 mm 0.00 in0.0 mm 0.00 in0.0 mm
01:32 AM 57.9°F14.4°C 39.9°F4.4°C 51% 1.0 mph SE1.6 kmh SE 7.0 mph11.3 kmh 29.48 in998.3 mb 0.00 in0.0 mm 0.00 in0.0 mm 0.00 in0.0 mm
01:34 AM 57.9°F14.4°C 39.9°F4.4°C 51% 2.0 mph SSE3.2 kmh SSE 5.0 mph8.0 kmh 29.48 in998.3 mb 0.00 in0.0 mm 0.00 in0.0 mm 0.00 in0.0 mm
01:36 AM 58.0°F14.4°C 40.0°F4.4°C 51% 3.0 mph SE4.8 kmh SE 6.0 mph9.7 kmh 29.49 in998.6 mb 0.00 in0.0 mm 0.00 in0.0 mm 0.00 in0.0 mm
01:38 AM 58.0°F14.4°C 40.5°F4.7°C 52% 5.0 mph SE8.0 kmh SE 6.0 mph9.7 kmh 29.49 in998.6 mb 0.00 in0.0 mm 0.00 in0.0 mm 0.00 in0.0 mm
01:40 AM 58.1°F14.5°C 40.6°F4.8°C 52% 4.0 mph SE6.4 kmh SE 7.0 mph11.3 kmh 29.49 in998.6 mb 0.00 in0.0 mm 0.00 in0.0 mm 0.00 in0.0 mm
01:42 AM 58.1°F14.5°C 40.6°F4.8°C 52% 3.0 mph SE4.8 kmh SE 7.0 mph11.3 kmh 29.49 in998.6 mb 0.00 in0.0 mm 0.00 in0.0 mm 0.00 in0.0 mm
01:44 AM 58.0°F14.4°C 40.5°F4.7°C 52% 3.0 mph SE4.8 kmh SE 7.0 mph11.3 kmh 29.49 in998.6 mb 0.00 in0.0 mm 0.00 in0.0 mm 0.00 in0.0 mm
01:46 AM 58.1°F14.5°C 41.1°F5.1°C 53% 3.0 mph SSE4.8 kmh SSE 7.0 mph11.3 kmh 29.49 in998.6 mb 0.00 in0.0 mm 0.00 in0.0 mm 0.00 in0.0 mm
01:48 AM 58.2°F14.6°C 41.2°F5.1°C 53% 3.0 mph SSE4.8 kmh SSE 8.0 mph12.9 kmh 29.49 in998.6 mb 0.00 in0.0 mm 0.00 in0.0 mm 0.00 in0.0 mm
01:50 AM 58.3°F14.6°C 41.3°F5.2°C 53% 2.0 mph SE3.2 kmh SE 8.0 mph12.9 kmh 29.49 in998.6 mb 0.00 in0.0 mm 0.00 in0.0 mm 0.00 in0.0 mm
01:52 AM 58.5°F14.7°C 41.9°F5.5°C 54% 6.0 mph S9.7 kmh S 8.0 mph12.9 kmh 29.49 in998.6 mb 0.00 in0.0 mm 0.00 in0.0 mm 0.00 in0.0 mm
01:54 AM 58.5°F14.7°C 41.5°F5.3°C 53% 4.0 mph SSE6.4 kmh SSE 8.0 mph12.9 kmh 29.49 in998.6 mb 0.00 in0.0 mm 0.00 in0.0 mm 0.00 in0.0 mm
01:56 AM 58.7°F14.8°C 42.1°F5.6°C 54% 5.0 mph S8.0 kmh S 8.0 mph12.9 kmh 29.49 in998.6 mb 0.00 in0.0 mm 0.00 in0.0 mm 0.00 in0.0 mm
01:58 AM 58.8°F14.9°C 41.7°F5.4°C 53% 3.0 mph S4.8 kmh S 8.0 mph12.9 kmh 29.48 in998.3 mb 0.00 in0.0 mm 0.00 in0.0 mm 0.00 in0.0 mm
02:00 AM 58.8°F14.9°C 41.7°F5.4°C 53% 6.0 mph SSE9.7 kmh SSE 8.0 mph12.9 kmh 29.49 in998.6 mb 0.00 in0.0 mm 0.00 in0.0 mm 0.00 in0.0 mm
02:02 AM 58.9°F14.9°C 42.3°F5.7°C 54% 5.0 mph S8.0 kmh S 8.0 mph12.9 kmh 29.48 in998.3 mb 0.00 in0.0 mm 0.00 in0.0 mm 0.00 in0.0 mm
02:04 AM 58.9°F14.9°C 42.3°F5.7°C 54% 2.0 mph SSE3.2 kmh SSE 5.0 mph8.0 kmh 29.48 in998.3 mb 0.00 in0.0 mm 0.00 in0.0 mm 0.00 in0.0 mm
02:06 AM 58.9°F14.9°C 42.3°F5.7°C 54% 7.0 mph SSE11.3 kmh SSE 8.0 mph12.9 kmh 29.48 in998.3 mb 0.00 in0.0 mm 0.00 in0.0 mm 0.00 in0.0 mm
02:08 AM 58.9°F14.9°C 42.3°F5.7°C 54% 3.0 mph SE4.8 kmh SE 8.0 mph12.9 kmh 29.48 in998.3 mb 0.00 in0.0 mm 0.00 in0.0 mm 0.00 in0.0 mm
02:10 AM 58.9°F14.9°C 42.3°F5.7°C 54% 4.0 mph SE6.4 kmh SE 8.0 mph12.9 kmh 29.47 in998.0 mb 0.00 in0.0 mm 0.00 in0.0 mm 0.00 in0.0 mm
02:12 AM 58.9°F14.9°C 42.3°F5.7°C 54% 3.0 mph SE4.8 kmh SE 8.0 mph12.9 kmh 29.48 in998.3 mb 0.00 in0.0 mm 0.00 in0.0 mm 0.00 in0.0 mm
02:14 AM 58.8°F14.9°C 42.2°F5.7°C 54% 4.0 mph SSE6.4 kmh SSE 8.0 mph12.9 kmh 29.48 in998.3 mb 0.00 in0.0 mm 0.00 in0.0 mm 0.00 in0.0 mm
02:16 AM 58.8°F14.9°C 42.2°F5.7°C 54% 5.0 mph S8.0 kmh S 8.0 mph12.9 kmh 29.47 in998.0 mb 0.00 in0.0 mm 0.00 in0.0 mm 0.00 in0.0 mm
02:18 AM 58.8°F14.9°C 42.2°F5.7°C 54% 1.0 mph SE1.6 kmh SE 8.0 mph12.9 kmh 29.48 in998.3 mb 0.00 in0.0 mm 0.00 in0.0 mm 0.00 in0.0 mm
02:20 AM 58.8°F14.9°C 42.2°F5.7°C 54% 3.0 mph SE4.8 kmh SE 8.0 mph12.9 kmh 29.48 in998.3 mb 0.00 in0.0 mm 0.00 in0.0 mm 0.00 in0.0 mm
02:22 AM 58.9°F14.9°C 42.3°F5.7°C 54% 7.0 mph SE11.3 kmh SE 10.0 mph16.1 kmh 29.48 in998.3 mb 0.00 in0.0 mm 0.00 in0.0 mm 0.00 in0.0 mm
02:24 AM 58.9°F14.9°C 42.3°F5.7°C 54% 3.0 mph SSE4.8 kmh SSE 10.0 mph16.1 kmh 29.47 in998.0 mb 0.00 in0.0 mm 0.00 in0.0 mm 0.00 in0.0 mm
02:26 AM 59.0°F15.0°C 42.4°F5.8°C 54% 6.0 mph S9.7 kmh S 10.0 mph16.1 kmh 29.47 in998.0 mb 0.00 in0.0 mm 0.00 in0.0 mm 0.00 in0.0 mm
02:28 AM 59.0°F15.0°C 42.4°F5.8°C 54% 3.0 mph SSE4.8 kmh SSE 10.0 mph16.1 kmh 29.47 in998.0 mb 0.00 in0.0 mm 0.00 in0.0 mm 0.00 in0.0 mm
02:30 AM 59.0°F15.0°C 42.4°F5.8°C 54% 4.0 mph S6.4 kmh S 10.0 mph16.1 kmh 29.47 in998.0 mb 0.00 in0.0 mm 0.00 in0.0 mm 0.00 in0.0 mm
02:32 AM 59.0°F15.0°C 42.4°F5.8°C 54% 6.0 mph S9.7 kmh S 10.0 mph16.1 kmh 29.47 in998.0 mb 0.00 in0.0 mm 0.00 in0.0 mm 0.00 in0.0 mm
02:34 AM 59.1°F15.1°C 42.5°F5.8°C 54% 4.0 mph SSE6.4 kmh SSE 8.0 mph12.9 kmh 29.47 in998.0 mb 0.00 in0.0 mm 0.00 in0.0 mm 0.00 in0.0 mm
02:36 AM 59.1°F15.1°C 42.5°F5.8°C 54% 3.0 mph SSE4.8 kmh SSE 8.0 mph12.9 kmh 29.47 in998.0 mb 0.00 in0.0 mm 0.00 in0.0 mm 0.00 in0.0 mm
02:38 AM 59.0°F15.0°C 42.4°F5.8°C 54% 4.0 mph SE6.4 kmh SE 8.0 mph12.9 kmh 29.46 in997.6 mb 0.00 in0.0 mm 0.00 in0.0 mm 0.00 in0.0 mm
02:40 AM 59.0°F15.0°C 42.4°F5.8°C 54% 6.0 mph S9.7 kmh S 9.0 mph14.5 kmh 29.46 in997.6 mb 0.00 in0.0 mm 0.00 in0.0 mm 0.00 in0.0 mm
02:42 AM 59.0°F15.0°C 42.4°F5.8°C 54% 6.0 mph S9.7 kmh S 11.0 mph17.7 kmh 29.46 in997.6 mb 0.00 in0.0 mm 0.00 in0.0 mm 0.00 in0.0 mm
02:44 AM 58.9°F14.9°C 42.3°F5.7°C 54% 4.0 mph ESE6.4 kmh ESE 11.0 mph17.7 kmh 29.46 in997.6 mb 0.00 in0.0 mm 0.00 in0.0 mm 0.00 in0.0 mm
02:46 AM 58.9°F14.9°C 42.3°F5.7°C 54% 7.0 mph SE11.3 kmh SE 11.0 mph17.7 kmh 29.46 in997.6 mb 0.00 in0.0 mm 0.00 in0.0 mm 0.00 in0.0 mm
02:48 AM 58.9°F14.9°C 42.3°F5.7°C 54% 5.0 mph SE8.0 kmh SE 11.0 mph17.7 kmh 29.46 in997.6 mb 0.00 in0.0 mm 0.00 in0.0 mm 0.00 in0.0 mm
02:50 AM 58.9°F14.9°C 42.3°F5.7°C 54% 4.0 mph SSE6.4 kmh SSE 11.0 mph17.7 kmh 29.46 in997.6 mb 0.00 in0.0 mm 0.00 in0.0 mm 0.00 in0.0 mm
02:52 AM 58.9°F14.9°C 42.3°F5.7°C 54% 3.0 mph S4.8 kmh S 11.0 mph17.7 kmh 29.46 in997.6 mb 0.00 in0.0 mm 0.00 in0.0 mm 0.00 in0.0 mm
02:54 AM 58.9°F14.9°C 42.3°F5.7°C 54% 4.0 mph S6.4 kmh S 11.0 mph17.7 kmh 29.46 in997.6 mb 0.00 in0.0 mm 0.00 in0.0 mm 0.00 in0.0 mm
02:56 AM 58.9°F14.9°C 42.3°F5.7°C 54% 3.0 mph SE4.8 kmh SE 11.0 mph17.7 kmh 29.46 in997.6 mb 0.00 in0.0 mm 0.00 in0.0 mm 0.00 in0.0 mm
02:58 AM 58.9°F14.9°C 42.3°F5.7°C 54% 6.0 mph S9.7 kmh S 11.0 mph17.7 kmh 29.46 in997.6 mb 0.00 in0.0 mm 0.00 in0.0 mm 0.00 in0.0 mm
03:00 AM 58.8°F14.9°C 42.2°F5.7°C 54% 3.0 mph SSE4.8 kmh SSE 11.0 mph17.7 kmh 29.46 in997.6 mb 0.00 in0.0 mm 0.00 in0.0 mm 0.00 in0.0 mm
03:02 AM 58.8°F14.9°C 42.2°F5.7°C 54% 3.0 mph S4.8 kmh S 11.0 mph17.7 kmh 29.46 in997.6 mb 0.00 in0.0 mm 0.00 in0.0 mm 0.00 in0.0 mm
03:04 AM 58.8°F14.9°C 42.2°F5.7°C 54% 2.0 mph S3.2 kmh S 5.0 mph8.0 kmh 29.46 in997.6 mb 0.00 in0.0 mm 0.00 in0.0 mm 0.00 in0.0 mm
03:06 AM 58.7°F14.8°C 42.1°F5.6°C 54% 5.0 mph S8.0 kmh S 5.0 mph8.0 kmh 29.46 in997.6 mb 0.00 in0.0 mm 0.00 in0.0 mm 0.00 in0.0 mm
03:08 AM 58.8°F14.9°C 42.2°F5.7°C 54% 4.0 mph SE6.4 kmh SE 6.0 mph9.7 kmh 29.46 in997.6 mb 0.00 in0.0 mm 0.00 in0.0 mm 0.00 in0.0 mm
03:10 AM 58.8°F14.9°C 42.2°F5.7°C 54% 4.0 mph SE6.4 kmh SE 6.0 mph9.7 kmh 29.46 in997.6 mb 0.00 in0.0 mm 0.00 in0.0 mm 0.00 in0.0 mm
03:12 AM 58.8°F14.9°C 42.2°F5.7°C 54% 3.0 mph SE4.8 kmh SE 7.0 mph11.3 kmh 29.46 in997.6 mb 0.00 in0.0 mm 0.00 in0.0 mm 0.00 in0.0 mm
03:14 AM 58.8°F14.9°C 42.2°F5.7°C 54% 6.0 mph S9.7 kmh S 7.0 mph11.3 kmh 29.46 in997.6 mb 0.00 in0.0 mm 0.00 in0.0 mm 0.00 in0.0 mm
03:16 AM 58.8°F14.9°C 42.2°F5.7°C 54% 5.0 mph SSE8.0 kmh SSE 7.0 mph11.3 kmh 29.46 in997.6 mb 0.00 in0.0 mm 0.00 in0.0 mm 0.00 in0.0 mm
03:18 AM 58.7°F14.8°C 42.6°F5.9°C 55% 3.0 mph SE4.8 kmh SE 7.0 mph11.3 kmh 29.45 in997.3 mb 0.00 in0.0 mm 0.00 in0.0 mm 0.00 in0.0 mm
03:20 AM 58.7°F14.8°C 42.6°F5.9°C 55% 2.0 mph SE3.2 kmh SE 7.0 mph11.3 kmh 29.45 in997.3 mb 0.00 in0.0 mm 0.00 in0.0 mm 0.00 in0.0 mm
03:22 AM 58.7°F14.8°C 42.6°F5.9°C 55% 2.0 mph SE3.2 kmh SE 7.0 mph11.3 kmh 29.45 in997.3 mb 0.00 in0.0 mm 0.00 in0.0 mm 0.00 in0.0 mm
03:24 AM 58.7°F14.8°C 42.6°F5.9°C 55% 2.0 mph SE3.2 kmh SE 7.0 mph11.3 kmh 29.45 in997.3 mb 0.00 in0.0 mm 0.00 in0.0 mm 0.00 in0.0 mm
03:26 AM 58.7°F14.8°C 42.6°F5.9°C 55% 6.0 mph SSE9.7 kmh SSE 8.0 mph12.9 kmh 29.46 in997.6 mb 0.00 in0.0 mm 0.00 in0.0 mm 0.00 in0.0 mm
03:28 AM 58.7°F14.8°C 42.6°F5.9°C 55% 3.0 mph SE4.8 kmh SE 8.0 mph12.9 kmh 29.46 in997.6 mb 0.00 in0.0 mm 0.00 in0.0 mm 0.00 in0.0 mm
03:30 AM 58.8°F14.9°C 42.7°F5.9°C 55% 5.0 mph S8.0 kmh S 8.0 mph12.9 kmh 29.46 in997.6 mb 0.00 in0.0 mm 0.00 in0.0 mm 0.00 in0.0 mm
03:32 AM 58.8°F14.9°C 42.7°F5.9°C 55% 2.0 mph SE3.2 kmh SE 8.0 mph12.9 kmh 29.45 in997.3 mb 0.00 in0.0 mm 0.00 in0.0 mm 0.00 in0.0 mm
03:34 AM 58.9°F14.9°C 42.8°F6.0°C 55% 6.0 mph SE9.7 kmh SE 8.0 mph12.9 kmh 29.45 in997.3 mb 0.00 in0.0 mm 0.00 in0.0 mm 0.00 in0.0 mm
03:36 AM 59.0°F15.0°C 42.9°F6.1°C 55% 2.0 mph SE3.2 kmh SE 8.0 mph12.9 kmh 29.45 in997.3 mb 0.00 in0.0 mm 0.00 in0.0 mm 0.00 in0.0 mm
03:38 AM 59.1°F15.1°C 43.0°F6.1°C 55% 4.0 mph ESE6.4 kmh ESE 8.0 mph12.9 kmh 29.45 in997.3 mb 0.00 in0.0 mm 0.00 in0.0 mm 0.00 in0.0 mm
03:40 AM 59.2°F15.1°C 43.1°F6.2°C 55% 3.0 mph SE4.8 kmh SE 11.0 mph17.7 kmh 29.45 in997.3 mb 0.00 in0.0 mm 0.00 in0.0 mm 0.00 in0.0 mm
03:42 AM 59.3°F15.2°C 43.2°F6.2°C 55% 7.0 mph SE11.3 kmh SE 11.0 mph17.7 kmh 29.45 in997.3 mb 0.00 in0.0 mm 0.00 in0.0 mm 0.00 in0.0 mm
03:44 AM 59.5°F15.3°C 43.3°F6.3°C 55% 4.0 mph SSE6.4 kmh SSE 11.0 mph17.7 kmh 29.45 in997.3 mb 0.00 in0.0 mm 0.00 in0.0 mm 0.00 in0.0 mm
03:46 AM 59.6°F15.3°C 43.0°F6.1°C 54% 4.0 mph SE6.4 kmh SE 11.0 mph17.7 kmh 29.45 in997.3 mb 0.00 in0.0 mm 0.00 in0.0 mm 0.00 in0.0 mm
03:48 AM 59.7°F15.4°C 43.1°F6.2°C 54% 2.0 mph ESE3.2 kmh ESE 11.0 mph17.7 kmh 29.45 in997.3 mb 0.00 in0.0 mm 0.00 in0.0 mm 0.00 in0.0 mm
03:50 AM 59.7°F15.4°C 43.1°F6.2°C 54% 2.0 mph SE3.2 kmh SE 11.0 mph17.7 kmh 29.44 in997.0 mb 0.00 in0.0 mm 0.00 in0.0 mm 0.00 in0.0 mm
03:52 AM 59.8°F15.4°C 43.1°F6.2°C 54% 1.0 mph SE1.6 kmh SE 11.0 mph17.7 kmh 29.44 in997.0 mb 0.00 in0.0 mm 0.00 in0.0 mm 0.00 in0.0 mm
03:54 AM 59.9°F15.5°C 43.2°F6.2°C 54% 5.0 mph SE8.0 kmh SE 11.0 mph17.7 kmh 29.44 in997.0 mb 0.00 in0.0 mm 0.00 in0.0 mm 0.00 in0.0 mm
03:56 AM 59.9°F15.5°C 43.2°F6.2°C 54% 2.0 mph SE3.2 kmh SE 11.0 mph17.7 kmh 29.44 in997.0 mb 0.00 in0.0 mm 0.00 in0.0 mm 0.00 in0.0 mm
03:58 AM 59.9°F15.5°C 43.7°F6.5°C 55% 6.0 mph SSE9.7 kmh SSE 11.0 mph17.7 kmh 29.44 in997.0 mb 0.00 in0.0 mm 0.00 in0.0 mm 0.00 in0.0 mm
04:00 AM 59.9°F15.5°C 43.7°F6.5°C 55% 4.0 mph SSE6.4 kmh SSE 11.0 mph17.7 kmh 29.45 in997.3 mb 0.00 in0.0 mm 0.00 in0.0 mm 0.00 in0.0 mm
04:02 AM 60.0°F15.6°C 43.8°F6.6°C 55% 7.0 mph SE11.3 kmh SE 11.0 mph17.7 kmh 29.44 in997.0 mb 0.00 in0.0 mm 0.00 in0.0 mm 0.00 in0.0 mm
04:04 AM 60.1°F15.6°C 43.9°F6.6°C 55% 4.0 mph SSE6.4 kmh SSE 4.0 mph6.4 kmh 29.44 in997.0 mb 0.00 in0.0 mm 0.00 in0.0 mm 0.00 in0.0 mm
04:06 AM 60.2°F15.7°C 44.0°F6.7°C 55% 5.0 mph S8.0 kmh S 7.0 mph11.3 kmh 29.44 in997.0 mb 0.00 in0.0 mm 0.00 in0.0 mm 0.00 in0.0 mm
04:08 AM 60.3°F15.7°C 44.1°F6.7°C 55% 3.0 mph SE4.8 kmh SE 9.0 mph14.5 kmh 29.43 in996.6 mb 0.00 in0.0 mm 0.00 in0.0 mm 0.00 in0.0 mm
04:10 AM 60.4°F15.8°C 44.2°F6.8°C 55% 3.0 mph SE4.8 kmh SE 9.0 mph14.5 kmh 29.43 in996.6 mb 0.00 in0.0 mm 0.00 in0.0 mm 0.00 in0.0 mm
04:12 AM 60.6°F15.9°C 44.4°F6.9°C 55% 2.0 mph SE3.2 kmh SE 9.0 mph14.5 kmh 29.43 in996.6 mb 0.00 in0.0 mm 0.00 in0.0 mm 0.00 in0.0 mm
04:14 AM 60.6°F15.9°C 44.4°F6.9°C 55% 3.0 mph SE4.8 kmh SE 9.0 mph14.5 kmh 29.43 in996.6 mb 0.00 in0.0 mm 0.00 in0.0 mm 0.00 in0.0 mm
04:16 AM 60.7°F15.9°C 44.5°F6.9°C 55% 4.0 mph SSE6.4 kmh SSE 9.0 mph14.5 kmh 29.43 in996.6 mb 0.00 in0.0 mm 0.00 in0.0 mm 0.00 in0.0 mm
04:18 AM 60.8°F16.0°C 44.6°F7.0°C 55% 3.0 mph SSE4.8 kmh SSE 9.0 mph14.5 kmh 29.43 in996.6 mb 0.00 in0.0 mm 0.00 in0.0 mm 0.00 in0.0 mm
04:20 AM 60.9°F16.1°C 44.6°F7.0°C 55% 4.0 mph SSE6.4 kmh SSE 9.0 mph14.5 kmh 29.43 in996.6 mb 0.00 in0.0 mm 0.00 in0.0 mm 0.00 in0.0 mm
04:22 AM 61.0°F16.1°C 44.7°F7.1°C 55% 3.0 mph SE4.8 kmh SE 9.0 mph14.5 kmh 29.43 in996.6 mb 0.00 in0.0 mm 0.00 in0.0 mm 0.00 in0.0 mm
04:24 AM 61.0°F16.1°C 44.7°F7.1°C 55% 6.0 mph SSE9.7 kmh SSE 10.0 mph16.1 kmh 29.43 in996.6 mb 0.00 in0.0 mm 0.00 in0.0 mm 0.00 in0.0 mm
04:26 AM 61.2°F16.2°C 44.9°F7.2°C 55% 8.0 mph SSE12.9 kmh SSE 11.0 mph17.7 kmh 29.43 in996.6 mb 0.00 in0.0 mm 0.00 in0.0 mm 0.00 in0.0 mm
04:28 AM 61.2°F16.2°C 44.9°F7.2°C 55% 4.0 mph SE6.4 kmh SE 11.0 mph17.7 kmh 29.43 in996.6 mb 0.00 in0.0 mm 0.00 in0.0 mm 0.00 in0.0 mm
04:30 AM 61.2°F16.2°C 44.9°F7.2°C 55% 5.0 mph S8.0 kmh S 11.0 mph17.7 kmh 29.44 in997.0 mb 0.00 in0.0 mm 0.00 in0.0 mm 0.00 in0.0 mm
04:32 AM 61.3°F16.3°C 45.0°F7.2°C 55% 4.0 mph SSE6.4 kmh SSE 11.0 mph17.7 kmh 29.44 in997.0 mb 0.00 in0.0 mm 0.00 in0.0 mm 0.00 in0.0 mm
04:34 AM 61.3°F16.3°C 45.0°F7.2°C 55% 2.0 mph SE3.2 kmh SE 8.0 mph12.9 kmh 29.44 in997.0 mb 0.00 in0.0 mm 0.00 in0.0 mm 0.00 in0.0 mm
04:36 AM 61.3°F16.3°C 45.0°F7.2°C 55% 2.0 mph SE3.2 kmh SE 8.0 mph12.9 kmh 29.44 in997.0 mb 0.00 in0.0 mm 0.00 in0.0 mm 0.00 in0.0 mm
04:38 AM 61.3°F16.3°C 45.0°F7.2°C 55% 5.0 mph S8.0 kmh S 8.0 mph12.9 kmh 29.44 in997.0 mb 0.00 in0.0 mm 0.00 in0.0 mm 0.00 in0.0 mm
04:40 AM 61.3°F16.3°C 45.0°F7.2°C 55% 3.0 mph SSE4.8 kmh SSE 8.0 mph12.9 kmh 29.44 in997.0 mb 0.00 in0.0 mm 0.00 in0.0 mm 0.00 in0.0 mm
04:42 AM 61.4°F16.3°C 45.1°F7.3°C 55% 1.0 mph SSE1.6 kmh SSE 8.0 mph12.9 kmh 29.44 in997.0 mb 0.00 in0.0 mm 0.00 in0.0 mm 0.00 in0.0 mm
04:44 AM 61.4°F16.3°C 45.1°F7.3°C 55% 3.0 mph SE4.8 kmh SE 8.0 mph12.9 kmh 29.44 in997.0 mb 0.00 in0.0 mm 0.00 in0.0 mm 0.00 in0.0 mm
04:46 AM 61.4°F16.3°C 45.1°F7.3°C 55% 4.0 mph SSE6.4 kmh SSE 8.0 mph12.9 kmh 29.44 in997.0 mb 0.00 in0.0 mm 0.00 in0.0 mm 0.00 in0.0 mm
04:48 AM 61.5°F16.4°C 45.2°F7.3°C 55% 5.0 mph S8.0 kmh S 8.0 mph12.9 kmh 29.44 in997.0 mb 0.00 in0.0 mm 0.00 in0.0 mm 0.00 in0.0 mm
04:50 AM 61.5°F16.4°C 45.7°F7.6°C 56% 2.0 mph S3.2 kmh S 8.0 mph12.9 kmh 29.44 in997.0 mb 0.00 in0.0 mm 0.00 in0.0 mm 0.00 in0.0 mm
04:52 AM 61.7°F16.5°C 45.9°F7.7°C 56% 4.0 mph S6.4 kmh S 8.0 mph12.9 kmh 29.44 in997.0 mb 0.00 in0.0 mm 0.00 in0.0 mm 0.00 in0.0 mm
04:54 AM 61.7°F16.5°C 45.9°F7.7°C 56% 6.0 mph S9.7 kmh S 8.0 mph12.9 kmh 29.44 in997.0 mb 0.00 in0.0 mm 0.00 in0.0 mm 0.00 in0.0 mm
04:56 AM 61.8°F16.6°C 46.0°F7.8°C 56% 3.0 mph SSE4.8 kmh SSE 8.0 mph12.9 kmh 29.44 in997.0 mb 0.00 in0.0 mm 0.00 in0.0 mm 0.00 in0.0 mm
04:58 AM 61.9°F16.6°C 46.1°F7.8°C 56% 2.0 mph SE3.2 kmh SE 8.0 mph12.9 kmh 29.44 in997.0 mb 0.00 in0.0 mm 0.00 in0.0 mm 0.00 in0.0 mm
05:00 AM 62.0°F16.7°C 46.1°F7.8°C 56% 2.0 mph SSE3.2 kmh SSE 8.0 mph12.9 kmh 29.44 in997.0 mb 0.00 in0.0 mm 0.00 in0.0 mm 0.00 in0.0 mm
05:02 AM 62.1°F16.7°C 45.8°F7.7°C 55% 4.0 mph S6.4 kmh S 8.0 mph12.9 kmh 29.44 in997.0 mb 0.00 in0.0 mm 0.00 in0.0 mm 0.00 in0.0 mm
05:04 AM 62.2°F16.8°C 45.9°F7.7°C 55% 4.0 mph S6.4 kmh S 5.0 mph8.0 kmh 29.44 in997.0 mb 0.00 in0.0 mm 0.00 in0.0 mm 0.00 in0.0 mm
05:06 AM 62.2°F16.8°C 45.9°F7.7°C 55% 3.0 mph SSE4.8 kmh SSE 5.0 mph8.0 kmh 29.44 in997.0 mb 0.00 in0.0 mm 0.00 in0.0 mm 0.00 in0.0 mm
05:08 AM 62.3°F16.8°C 46.0°F7.8°C 55% 1.0 mph S1.6 kmh S 6.0 mph9.7 kmh 29.44 in997.0 mb 0.00 in0.0 mm 0.00 in0.0 mm 0.00 in0.0 mm
05:10 AM 62.4°F16.9°C 46.0°F7.8°C 55% 3.0 mph SSE4.8 kmh SSE 6.0 mph9.7 kmh 29.44 in997.0 mb 0.00 in0.0 mm 0.00 in0.0 mm 0.00 in0.0 mm
05:12 AM 62.5°F16.9°C 46.1°F7.8°C 55% 3.0 mph S4.8 kmh S 6.0 mph9.7 kmh 29.44 in997.0 mb 0.00 in0.0 mm 0.00 in0.0 mm 0.00 in0.0 mm
05:14 AM 62.5°F16.9°C 46.1°F7.8°C 55% 2.0 mph S3.2 kmh S 6.0 mph9.7 kmh 29.44 in997.0 mb 0.00 in0.0 mm 0.00 in0.0 mm 0.00 in0.0 mm
05:16 AM 62.5°F16.9°C 46.1°F7.8°C 55% 5.0 mph SSE8.0 kmh SSE 6.0 mph9.7 kmh 29.44 in997.0 mb 0.00 in0.0 mm 0.00 in0.0 mm 0.00 in0.0 mm
05:18 AM 62.6°F17.0°C 46.2°F7.9°C 55% 4.0 mph SSE6.4 kmh SSE 6.0 mph9.7 kmh 29.44 in997.0 mb 0.00 in0.0 mm 0.00 in0.0 mm 0.00 in0.0 mm
05:20 AM 62.5°F16.9°C 46.1°F7.8°C 55% 2.0 mph SSE3.2 kmh SSE 6.0 mph9.7 kmh 29.44 in997.0 mb 0.00 in0.0 mm 0.00 in0.0 mm 0.00 in0.0 mm
05:22 AM 62.5°F16.9°C 46.1°F7.8°C 55% 2.0 mph SSE3.2 kmh SSE 6.0 mph9.7 kmh 29.44 in997.0 mb 0.00 in0.0 mm 0.00 in0.0 mm 0.00 in0.0 mm
05:24 AM 62.6°F17.0°C 46.2°F7.9°C 55% 3.0 mph S4.8 kmh S 6.0 mph9.7 kmh 29.44 in997.0 mb 0.00 in0.0 mm 0.00 in0.0 mm 0.00 in0.0 mm
05:26 AM 62.6°F17.0°C 46.2°F7.9°C 55% 6.0 mph S9.7 kmh S 8.0 mph12.9 kmh 29.44 in997.0 mb 0.00 in0.0 mm 0.00 in0.0 mm 0.00 in0.0 mm
05:28 AM 62.8°F17.1°C 46.4°F8.0°C 55% 7.0 mph S11.3 kmh S 8.0 mph12.9 kmh 29.44 in997.0 mb 0.00 in0.0 mm 0.00 in0.0 mm 0.00 in0.0 mm
05:30 AM 63.0°F17.2°C 46.6°F8.1°C 55% 3.0 mph S4.8 kmh S 8.0 mph12.9 kmh 29.44 in997.0 mb 0.00 in0.0 mm 0.00 in0.0 mm 0.00 in0.0 mm
05:32 AM 63.1°F17.3°C 46.2°F7.9°C 54% 4.0 mph S6.4 kmh S 8.0 mph12.9 kmh 29.44 in997.0 mb 0.00 in0.0 mm 0.00 in0.0 mm 0.00 in0.0 mm
05:34 AM 63.3°F17.4°C 46.4°F8.0°C 54% 4.0 mph S6.4 kmh S 7.0 mph11.3 kmh 29.44 in997.0 mb 0.00 in0.0 mm 0.00 in0.0 mm 0.00 in0.0 mm
05:36 AM 63.3°F17.4°C 46.4°F8.0°C 54% 4.0 mph S6.4 kmh S 8.0 mph12.9 kmh 29.44 in997.0 mb 0.00 in0.0 mm 0.00 in0.0 mm 0.00 in0.0 mm
05:38 AM 63.4°F17.4°C 46.5°F8.1°C 54% 4.0 mph SSE6.4 kmh SSE 8.0 mph12.9 kmh 29.44 in997.0 mb 0.00 in0.0 mm 0.00 in0.0 mm 0.00 in0.0 mm
05:40 AM 63.4°F17.4°C 46.5°F8.1°C 54% 5.0 mph S8.0 kmh S 8.0 mph12.9 kmh 29.44 in997.0 mb 0.00 in0.0 mm 0.00 in0.0 mm 0.00 in0.0 mm
05:42 AM 63.5°F17.5°C 46.6°F8.1°C 54% 4.0 mph S6.4 kmh S 8.0 mph12.9 kmh 29.44 in997.0 mb 0.00 in0.0 mm 0.00 in0.0 mm 0.00 in0.0 mm
05:44 AM 63.6°F17.6°C 46.7°F8.2°C 54% 5.0 mph SSE8.0 kmh SSE 8.0 mph12.9 kmh 29.45 in997.3 mb 0.00 in0.0 mm 0.00 in0.0 mm 0.00 in0.0 mm
05:46 AM 63.6°F17.6°C 46.7°F8.2°C 54% 5.0 mph S8.0 kmh S 9.0 mph14.5 kmh 29.45 in997.3 mb 0.00 in0.0 mm 0.00 in0.0 mm 0.00 in0.0 mm
05:48 AM 63.6°F17.6°C 46.7°F8.2°C 54% 7.0 mph SE11.3 kmh SE 9.0 mph14.5 kmh 29.45 in997.3 mb 0.00 in0.0 mm 0.00 in0.0 mm 0.00 in0.0 mm
05:50 AM 63.7°F17.6°C 46.8°F8.2°C 54% 5.0 mph S8.0 kmh S 9.0 mph14.5 kmh 29.45 in997.3 mb 0.00 in0.0 mm 0.00 in0.0 mm 0.00 in0.0 mm
05:52 AM 63.8°F17.7°C 46.9°F8.3°C 54% 4.0 mph S6.4 kmh S 9.0 mph14.5 kmh 29.45 in997.3 mb 0.00 in0.0 mm 0.00 in0.0 mm 0.00 in0.0 mm
05:54 AM 63.9°F17.7°C 47.0°F8.3°C 54% 3.0 mph SE4.8 kmh SE 10.0 mph16.1 kmh 29.45 in997.3 mb 0.00 in0.0 mm 0.00 in0.0 mm 0.00 in0.0 mm
05:56 AM 63.9°F17.7°C 47.0°F8.3°C 54% 4.0 mph S6.4 kmh S 10.0 mph16.1 kmh 29.45 in997.3 mb 0.00 in0.0 mm 0.00 in0.0 mm 0.00 in0.0 mm
05:58 AM 64.1°F17.8°C 47.1°F8.4°C 54% 7.0 mph S11.3 kmh S 10.0 mph16.1 kmh 29.45 in997.3 mb 0.00 in0.0 mm 0.00 in0.0 mm 0.00 in0.0 mm
06:00 AM 64.2°F17.9°C 47.2°F8.4°C 54% 10.0 mph SSE16.1 kmh SSE 10.0 mph16.1 kmh 29.45 in997.3 mb 0.00 in0.0 mm 0.00 in0.0 mm 0.00 in0.0 mm
06:02 AM 64.1°F17.8°C 47.1°F8.4°C 54% 5.0 mph SSE8.0 kmh SSE 10.0 mph16.1 kmh 29.45 in997.3 mb 0.00 in0.0 mm 0.00 in0.0 mm 0.00 in0.0 mm
06:04 AM 64.2°F17.9°C 47.2°F8.4°C 54% 6.0 mph SSE9.7 kmh SSE 6.0 mph9.7 kmh 29.45 in997.3 mb 0.00 in0.0 mm 0.00 in0.0 mm 0.00 in0.0 mm
06:06 AM 64.3°F17.9°C 47.3°F8.5°C 54% 4.0 mph SSE6.4 kmh SSE 11.0 mph17.7 kmh 29.45 in997.3 mb 0.00 in0.0 mm 0.00 in0.0 mm 0.00 in0.0 mm
06:08 AM 64.4°F18.0°C 47.9°F8.8°C 55% 7.0 mph SSE11.3 kmh SSE 11.0 mph17.7 kmh 29.45 in997.3 mb 0.00 in0.0 mm 0.00 in0.0 mm 0.00 in0.0 mm
06:10 AM 64.5°F18.1°C 47.5°F8.6°C 54% 3.0 mph SSE4.8 kmh SSE 11.0 mph17.7 kmh 29.45 in997.3 mb 0.00 in0.0 mm 0.00 in0.0 mm 0.00 in0.0 mm
06:12 AM 64.5°F18.1°C 47.5°F8.6°C 54% 3.0 mph S4.8 kmh S 11.0 mph17.7 kmh 29.45 in997.3 mb 0.00 in0.0 mm 0.00 in0.0 mm 0.00 in0.0 mm
06:14 AM 64.7°F18.2°C 48.2°F9.0°C 55% 6.0 mph SSE9.7 kmh SSE 11.0 mph17.7 kmh 29.45 in997.3 mb 0.00 in0.0 mm 0.00 in0.0 mm 0.00 in0.0 mm
06:16 AM 64.8°F18.2°C 48.3°F9.1°C 55% 5.0 mph S8.0 kmh S 11.0 mph17.7 kmh 29.46 in997.6 mb 0.00 in0.0 mm 0.00 in0.0 mm 0.00 in0.0 mm
06:18 AM 64.8°F18.2°C 48.3°F9.1°C 55% 9.0 mph SE14.5 kmh SE 11.0 mph17.7 kmh 29.46 in997.6 mb 0.00 in0.0 mm 0.00 in0.0 mm 0.00 in0.0 mm
06:20 AM 64.8°F18.2°C 48.3°F9.1°C 55% 4.0 mph SSE6.4 kmh SSE 11.0 mph17.7 kmh 29.45 in997.3 mb 0.00 in0.0 mm 0.00 in0.0 mm 0.00 in0.0 mm
06:22 AM 64.9°F18.3°C 48.4°F9.1°C 55% 5.0 mph SE8.0 kmh SE 11.0 mph17.7 kmh 29.45 in997.3 mb 0.00 in0.0 mm 0.00 in0.0 mm 0.00 in0.0 mm
06:24 AM 64.9°F18.3°C 48.4°F9.1°C 55% 2.0 mph SE3.2 kmh SE 11.0 mph17.7 kmh 29.45 in997.3 mb 0.00 in0.0 mm 0.00 in0.0 mm 0.00 in0.0 mm
06:26 AM 65.0°F18.3°C 48.5°F9.2°C 55% 7.0 mph SSE11.3 kmh SSE 11.0 mph17.7 kmh 29.45 in997.3 mb 0.00 in0.0 mm 0.00 in0.0 mm 0.00 in0.0 mm
06:27 AM 65.0°F18.3°C 48.5°F9.2°C 55% 5.0 mph SSE8.0 kmh SSE 11.0 mph17.7 kmh 29.46 in997.6 mb 0.00 in0.0 mm 0.00 in0.0 mm 0.00 in0.0 mm
06:30 AM 64.9°F18.3°C 48.4°F9.1°C 55% 6.0 mph S9.7 kmh S 11.0 mph17.7 kmh 29.45 in997.3 mb 0.00 in0.0 mm 0.00 in0.0 mm 0.00 in0.0 mm
06:32 AM 64.9°F18.3°C 48.4°F9.1°C 55% 4.0 mph SSE6.4 kmh SSE 11.0 mph17.7 kmh 29.45 in997.3 mb 0.00 in0.0 mm 0.00 in0.0 mm 0.00 in0.0 mm
06:34 AM 64.8°F18.2°C 48.3°F9.1°C 55% 3.0 mph SE4.8 kmh SE 6.0 mph9.7 kmh 29.45 in997.3 mb 0.00 in0.0 mm 0.00 in0.0 mm 0.00 in0.0 mm
06:35 AM 64.8°F18.2°C 48.3°F9.1°C 55% 2.0 mph SE3.2 kmh SE 6.0 mph9.7 kmh 29.45 in997.3 mb 0.00 in0.0 mm 0.00 in0.0 mm 0.00 in0.0 mm
06:38 AM 64.7°F18.2°C 48.2°F9.0°C 55% 3.0 mph SE4.8 kmh SE 6.0 mph9.7 kmh 29.45 in997.3 mb 0.00 in0.0 mm 0.00 in0.0 mm 0.00 in0.0 mm
06:40 AM 64.6°F18.1°C 48.1°F8.9°C 55% 3.0 mph SE4.8 kmh SE 7.0 mph11.3 kmh 29.45 in997.3 mb 0.00 in0.0 mm 0.00 in0.0 mm 0.00 in0.0 mm
06:42 AM 64.4°F18.0°C 47.9°F8.8°C 55% 2.0 mph SE3.2 kmh SE 7.0 mph11.3 kmh 29.44 in997.0 mb 0.00 in0.0 mm 0.00 in0.0 mm 0.00 in0.0 mm
06:44 AM 64.2°F17.9°C 48.2°F9.0°C 56% 8.0 mph SE12.9 kmh SE 8.0 mph12.9 kmh 29.44 in997.0 mb 0.00 in0.0 mm 0.00 in0.0 mm 0.00 in0.0 mm
06:46 AM 64.1°F17.8°C 48.1°F8.9°C 56% 3.0 mph SE4.8 kmh SE 8.0 mph12.9 kmh 29.44 in997.0 mb 0.00 in0.0 mm 0.00 in0.0 mm 0.00 in0.0 mm
06:48 AM 64.0°F17.8°C 48.0°F8.9°C 56% 4.0 mph SE6.4 kmh SE 8.0 mph12.9 kmh 29.44 in997.0 mb 0.00 in0.0 mm 0.00 in0.0 mm 0.00 in0.0 mm
06:50 AM 63.9°F17.7°C 48.4°F9.1°C 57% 3.0 mph SE4.8 kmh SE 8.0 mph12.9 kmh 29.45 in997.3 mb 0.00 in0.0 mm 0.00 in0.0 mm 0.00 in0.0 mm
06:52 AM 63.7°F17.6°C 48.2°F9.0°C 57% 3.0 mph SSE4.8 kmh SSE 8.0 mph12.9 kmh 29.44 in997.0 mb 0.00 in0.0 mm 0.00 in0.0 mm 0.00 in0.0 mm
06:54 AM 63.7°F17.6°C 48.2°F9.0°C 57% 3.0 mph SE4.8 kmh SE 8.0 mph12.9 kmh 29.44 in997.0 mb 0.00 in0.0 mm 0.00 in0.0 mm 0.00 in0.0 mm
06:56 AM 63.6°F17.6°C 48.6°F9.2°C 58% 3.0 mph SE4.8 kmh SE 8.0 mph12.9 kmh 29.44 in997.0 mb 0.00 in0.0 mm 0.00 in0.0 mm 0.00 in0.0 mm
06:58 AM 63.6°F17.6°C 48.6°F9.2°C 58% 4.0 mph SSE6.4 kmh SSE 8.0 mph12.9 kmh 29.45 in997.3 mb 0.00 in0.0 mm 0.00 in0.0 mm 0.00 in0.0 mm
07:00 AM 63.7°F17.6°C 48.7°F9.3°C 58% 5.0 mph SSE8.0 kmh SSE 8.0 mph12.9 kmh 29.45 in997.3 mb 0.00 in0.0 mm 0.00 in0.0 mm 0.00 in0.0 mm
07:02 AM 63.8°F17.7°C 48.8°F9.3°C 58% 2.0 mph SSE3.2 kmh SSE 8.0 mph12.9 kmh 29.45 in997.3 mb 0.00 in0.0 mm 0.00 in0.0 mm 0.00 in0.0 mm
07:04 AM 63.9°F17.7°C 48.9°F9.4°C 58% 2.0 mph SSE3.2 kmh SSE 3.0 mph4.8 kmh 29.46 in997.6 mb 0.00 in0.0 mm 0.00 in0.0 mm 0.00 in0.0 mm
07:06 AM 64.0°F17.8°C 48.9°F9.4°C 58% 2.0 mph SSE3.2 kmh SSE 3.0 mph4.8 kmh 29.46 in997.6 mb 0.00 in0.0 mm 0.00 in0.0 mm 0.00 in0.0 mm
07:08 AM 64.1°F17.8°C 49.0°F9.4°C 58% 3.0 mph SSE4.8 kmh SSE 5.0 mph8.0 kmh 29.46 in997.6 mb 0.00 in0.0 mm 0.00 in0.0 mm 0.00 in0.0 mm
07:10 AM 64.1°F17.8°C 49.0°F9.4°C 58% 1.0 mph SSE1.6 kmh SSE 5.0 mph8.0 kmh 29.46 in997.6 mb 0.00 in0.0 mm 0.00 in0.0 mm 0.00 in0.0 mm
07:12 AM 64.2°F17.9°C 49.1°F9.5°C 58% 2.0 mph SSE3.2 kmh SSE 5.0 mph8.0 kmh 29.47 in998.0 mb 0.00 in0.0 mm 0.00 in0.0 mm 0.00 in0.0 mm
07:14 AM 64.3°F17.9°C 49.2°F9.6°C 58% 2.0 mph SSE3.2 kmh SSE 5.0 mph8.0 kmh 29.47 in998.0 mb 0.00 in0.0 mm 0.00 in0.0 mm 0.00 in0.0 mm
07:16 AM 64.4°F18.0°C 49.3°F9.6°C 58% 5.0 mph SSE8.0 kmh SSE 5.0 mph8.0 kmh 29.47 in998.0 mb 0.00 in0.0 mm 0.00 in0.0 mm 0.00 in0.0 mm
07:18 AM 64.4°F18.0°C 49.3°F9.6°C 58% 5.0 mph SSE8.0 kmh SSE 6.0 mph9.7 kmh 29.47 in998.0 mb 0.00 in0.0 mm 0.00 in0.0 mm 0.00 in0.0 mm
07:20 AM 64.5°F18.1°C 49.4°F9.7°C 58% 5.0 mph SSE8.0 kmh SSE 6.0 mph9.7 kmh 29.46 in997.6 mb 0.00 in0.0 mm 0.00 in0.0 mm 0.00 in0.0 mm
07:22 AM 64.6°F18.1°C 49.5°F9.7°C 58% 2.0 mph SSE3.2 kmh SSE 6.0 mph9.7 kmh 29.47 in998.0 mb 0.00 in0.0 mm 0.00 in0.0 mm 0.00 in0.0 mm
07:24 AM 64.7°F18.2°C 49.6°F9.8°C 58% 3.0 mph SSE4.8 kmh SSE 6.0 mph9.7 kmh 29.46 in997.6 mb 0.00 in0.0 mm 0.00 in0.0 mm 0.00 in0.0 mm
07:26 AM 64.7°F18.2°C 49.6°F9.8°C 58% 3.0 mph SSE4.8 kmh SSE 6.0 mph9.7 kmh 29.46 in997.6 mb 0.00 in0.0 mm 0.00 in0.0 mm 0.00 in0.0 mm
07:28 AM 64.8°F18.2°C 49.7°F9.8°C 58% 1.0 mph SSE1.6 kmh SSE 6.0 mph9.7 kmh 29.47 in998.0 mb 0.00 in0.0 mm 0.00 in0.0 mm 0.00 in0.0 mm
07:30 AM 64.8°F18.2°C 49.7°F9.8°C 58% 1.0 mph SSE1.6 kmh SSE 6.0 mph9.7 kmh 29.46 in997.6 mb 0.00 in0.0 mm 0.00 in0.0 mm 0.00 in0.0 mm
07:32 AM 64.8°F18.2°C 49.7°F9.8°C 58% 2.0 mph SE3.2 kmh SE 6.0 mph9.7 kmh 29.46 in997.6 mb 0.00 in0.0 mm 0.00 in0.0 mm 0.00 in0.0 mm
07:34 AM 64.8°F18.2°C 49.7°F9.8°C 58% 3.0 mph SE4.8 kmh SE 4.0 mph6.4 kmh 29.46 in997.6 mb 0.00 in0.0 mm 0.00 in0.0 mm 0.00 in0.0 mm
07:36 AM 64.8°F18.2°C 50.2°F10.1°C 59% 2.0 mph SE3.2 kmh SE 4.0 mph6.4 kmh 29.46 in997.6 mb 0.00 in0.0 mm 0.00 in0.0 mm 0.00 in0.0 mm
07:38 AM 64.8°F18.2°C 50.2°F10.1°C 59% 2.0 mph SE3.2 kmh SE 4.0 mph6.4 kmh 29.46 in997.6 mb 0.00 in0.0 mm 0.00 in0.0 mm 0.00 in0.0 mm
07:40 AM 64.9°F18.3°C 50.3°F10.2°C 59% 3.0 mph SSE4.8 kmh SSE 4.0 mph6.4 kmh 29.47 in998.0 mb 0.00 in0.0 mm 0.00 in0.0 mm 0.00 in0.0 mm
07:42 AM 65.0°F18.3°C 50.8°F10.4°C 60% 2.0 mph SE3.2 kmh SE 5.0 mph8.0 kmh 29.47 in998.0 mb 0.00 in0.0 mm 0.00 in0.0 mm 0.00 in0.0 mm
07:44 AM 65.1°F18.4°C 50.9°F10.5°C 60% 3.0 mph SE4.8 kmh SE 5.0 mph8.0 kmh 29.47 in998.0 mb 0.00 in0.0 mm 0.00 in0.0 mm 0.00 in0.0 mm
07:46 AM 65.2°F18.4°C 51.0°F10.6°C 60% 1.0 mph SSE1.6 kmh SSE 5.0 mph8.0 kmh 29.47 in998.0 mb 0.00 in0.0 mm 0.00 in0.0 mm 0.00 in0.0 mm
07:48 AM 65.1°F18.4°C 50.9°F10.5°C 60% 2.0 mph SSE3.2 kmh SSE 5.0 mph8.0 kmh 29.47 in998.0 mb 0.00 in0.0 mm 0.00 in0.0 mm 0.00 in0.0 mm
07:50 AM 65.3°F18.5°C 51.1°F10.6°C 60% 1.0 mph SSE1.6 kmh SSE 5.0 mph8.0 kmh 29.47 in998.0 mb 0.00 in0.0 mm 0.00 in0.0 mm 0.00 in0.0 mm
07:52 AM 65.3°F18.5°C 51.1°F10.6°C 60% 2.0 mph SSE3.2 kmh SSE 5.0 mph8.0 kmh 29.47 in998.0 mb 0.00 in0.0 mm 0.00 in0.0 mm 0.00 in0.0 mm
07:54 AM 65.4°F18.6°C 51.6°F10.9°C 61% 3.0 mph SSE4.8 kmh SSE 6.0 mph9.7 kmh 29.47 in998.0 mb 0.00 in0.0 mm 0.00 in0.0 mm 0.00 in0.0 mm
07:56 AM 65.6°F18.7°C 51.4°F10.8°C 60% 3.0 mph SSE4.8 kmh SSE 6.0 mph9.7 kmh 29.47 in998.0 mb 0.00 in0.0 mm 0.00 in0.0 mm 0.00 in0.0 mm
07:58 AM 65.6°F18.7°C 51.4°F10.8°C 60% 4.0 mph SSE6.4 kmh SSE 6.0 mph9.7 kmh 29.48 in998.3 mb 0.00 in0.0 mm 0.00 in0.0 mm 0.00 in0.0 mm
08:00 AM 65.7°F18.7°C 51.5°F10.8°C 60% 1.0 mph S1.6 kmh S 6.0 mph9.7 kmh 29.48 in998.3 mb 0.00 in0.0 mm 0.00 in0.0 mm 0.00 in0.0 mm
08:02 AM 65.8°F18.8°C 51.6°F10.9°C 60% 2.0 mph SE3.2 kmh SE 6.0 mph9.7 kmh 29.48 in998.3 mb 0.00 in0.0 mm 0.00 in0.0 mm 0.00 in0.0 mm
08:04 AM 65.8°F18.8°C 51.6°F10.9°C 60% 3.0 mph SE4.8 kmh SE 5.0 mph8.0 kmh 29.48 in998.3 mb 0.00 in0.0 mm 0.00 in0.0 mm 0.00 in0.0 mm
08:06 AM 65.8°F18.8°C 51.6°F10.9°C 60% 5.0 mph SSE8.0 kmh SSE 5.0 mph8.0 kmh 29.47 in998.0 mb 0.00 in0.0 mm 0.00 in0.0 mm 0.00 in0.0 mm
08:08 AM 65.8°F18.8°C 52.0°F11.1°C 61% 2.0 mph SE3.2 kmh SE 5.0 mph8.0 kmh 29.47 in998.0 mb 0.00 in0.0 mm 0.00 in0.0 mm 0.00 in0.0 mm
08:10 AM 65.8°F18.8°C 52.0°F11.1°C 61% 3.0 mph S4.8 kmh S 7.0 mph11.3 kmh 29.47 in998.0 mb 0.00 in0.0 mm 0.00 in0.0 mm 0.00 in0.0 mm
08:12 AM 65.9°F18.8°C 52.1°F11.2°C 61% 2.0 mph SSE3.2 kmh SSE 7.0 mph11.3 kmh 29.47 in998.0 mb 0.00 in0.0 mm 0.00 in0.0 mm 0.00 in0.0 mm
08:14 AM 65.9°F18.8°C 52.5°F11.4°C 62% 5.0 mph S8.0 kmh S 7.0 mph11.3 kmh 29.48 in998.3 mb 0.00 in0.0 mm 0.00 in0.0 mm 0.00 in0.0 mm
08:16 AM 66.0°F18.9°C 52.6°F11.4°C 62% 3.0 mph SE4.8 kmh SE 7.0 mph11.3 kmh 29.48 in998.3 mb 0.00 in0.0 mm 0.00 in0.0 mm 0.00 in0.0 mm
08:18 AM 66.0°F18.9°C 52.6°F11.4°C 62% 4.0 mph SSE6.4 kmh SSE 7.0 mph11.3 kmh 29.48 in998.3 mb 0.00 in0.0 mm 0.00 in0.0 mm 0.00 in0.0 mm
08:20 AM 66.1°F18.9°C 52.7°F11.5°C 62% 5.0 mph SE8.0 kmh SE 9.0 mph14.5 kmh 29.48 in998.3 mb 0.00 in0.0 mm 0.00 in0.0 mm 0.00 in0.0 mm
08:22 AM 66.1°F18.9°C 52.7°F11.5°C 62% 5.0 mph S8.0 kmh S 9.0 mph14.5 kmh 29.48 in998.3 mb 0.00 in0.0 mm 0.00 in0.0 mm 0.00 in0.0 mm
08:24 AM 66.2°F19.0°C 53.3°F11.8°C 63% 7.0 mph S11.3 kmh S 10.0 mph16.1 kmh 29.48 in998.3 mb 0.00 in0.0 mm 0.00 in0.0 mm 0.00 in0.0 mm
08:26 AM 66.2°F19.0°C 53.3°F11.8°C 63% 4.0 mph S6.4 kmh S 10.0 mph16.1 kmh 29.48 in998.3 mb 0.00 in0.0 mm 0.00 in0.0 mm 0.00 in0.0 mm
08:28 AM 66.2°F19.0°C 53.3°F11.8°C 63% 4.0 mph SSE6.4 kmh SSE 10.0 mph16.1 kmh 29.48 in998.3 mb 0.00 in0.0 mm 0.00 in0.0 mm 0.00 in0.0 mm
08:30 AM 66.2°F19.0°C 53.3°F11.8°C 63% 7.0 mph S11.3 kmh S 10.0 mph16.1 kmh 29.48 in998.3 mb 0.00 in0.0 mm 0.00 in0.0 mm 0.00 in0.0 mm
08:32 AM 66.2°F19.0°C 53.7°F12.1°C 64% 3.0 mph S4.8 kmh S 10.0 mph16.1 kmh 29.48 in998.3 mb 0.00 in0.0 mm 0.00 in0.0 mm 0.00 in0.0 mm
08:34 AM 66.3°F19.1°C 53.8°F12.1°C 64% 5.0 mph S8.0 kmh S 7.0 mph11.3 kmh 29.48 in998.3 mb 0.00 in0.0 mm 0.00 in0.0 mm 0.00 in0.0 mm
08:36 AM 66.3°F19.1°C 53.8°F12.1°C 64% 5.0 mph S8.0 kmh S 9.0 mph14.5 kmh 29.48 in998.3 mb 0.00 in0.0 mm 0.00 in0.0 mm 0.00 in0.0 mm
08:38 AM 66.4°F19.1°C 54.3°F12.4°C 65% 3.0 mph SE4.8 kmh SE 9.0 mph14.5 kmh 29.48 in998.3 mb 0.00 in0.0 mm 0.00 in0.0 mm 0.00 in0.0 mm
08:40 AM 66.4°F19.1°C 54.3°F12.4°C 65% 2.0 mph S3.2 kmh S 9.0 mph14.5 kmh 29.48 in998.3 mb 0.00 in0.0 mm 0.00 in0.0 mm 0.00 in0.0 mm
08:42 AM 66.4°F19.1°C 54.7°F12.6°C 66% 6.0 mph S9.7 kmh S 9.0 mph14.5 kmh 29.48 in998.3 mb 0.00 in0.0 mm 0.00 in0.0 mm 0.00 in0.0 mm
08:44 AM 66.6°F19.2°C 54.9°F12.7°C 66% 5.0 mph S8.0 kmh S 9.0 mph14.5 kmh 29.48 in998.3 mb 0.00 in0.0 mm 0.00 in0.0 mm 0.00 in0.0 mm
08:46 AM 66.6°F19.2°C 54.9°F12.7°C 66% 5.0 mph SE8.0 kmh SE 10.0 mph16.1 kmh 29.48 in998.3 mb 0.00 in0.0 mm 0.00 in0.0 mm 0.00 in0.0 mm
08:48 AM 66.7°F19.3°C 55.0°F12.8°C 66% 6.0 mph S9.7 kmh S 10.0 mph16.1 kmh 29.48 in998.3 mb 0.00 in0.0 mm 0.00 in0.0 mm 0.00 in0.0 mm
08:50 AM 66.9°F19.4°C 55.2°F12.9°C 66% 5.0 mph SE8.0 kmh SE 10.0 mph16.1 kmh 29.48 in998.3 mb 0.00 in0.0 mm 0.00 in0.0 mm 0.00 in0.0 mm
08:52 AM 66.9°F19.4°C 55.6°F13.1°C 67% 8.0 mph SE12.9 kmh SE 10.0 mph16.1 kmh 29.48 in998.3 mb 0.00 in0.0 mm 0.00 in0.0 mm 0.00 in0.0 mm
08:54 AM 67.0°F19.4°C 55.7°F13.2°C 67% 4.0 mph S6.4 kmh S 10.0 mph16.1 kmh 29.49 in998.6 mb 0.00 in0.0 mm 0.00 in0.0 mm 0.00 in0.0 mm
08:56 AM 67.0°F19.4°C 55.7°F13.2°C 67% 6.0 mph S9.7 kmh S 10.0 mph16.1 kmh 29.49 in998.6 mb 0.00 in0.0 mm 0.00 in0.0 mm 0.00 in0.0 mm
08:58 AM 67.0°F19.4°C 55.7°F13.2°C 67% 5.0 mph S8.0 kmh S 10.0 mph16.1 kmh 29.49 in998.6 mb 0.00 in0.0 mm 0.00 in0.0 mm 0.00 in0.0 mm
09:00 AM 67.1°F19.5°C 55.8°F13.2°C 67% 4.0 mph SE6.4 kmh SE 10.0 mph16.1 kmh 29.49 in998.6 mb 0.00 in0.0 mm 0.00 in0.0 mm 0.00 in0.0 mm
09:02 AM 67.1°F19.5°C 55.8°F13.2°C 67% 4.0 mph SSE6.4 kmh SSE 10.0 mph16.1 kmh 29.49 in998.6 mb 0.00 in0.0 mm 0.00 in0.0 mm 0.00 in0.0 mm
09:04 AM 67.1°F19.5°C 55.8°F13.2°C 67% 4.0 mph SE6.4 kmh SE 5.0 mph8.0 kmh 29.49 in998.6 mb 0.00 in0.0 mm 0.00 in0.0 mm 0.00 in0.0 mm
09:06 AM 67.1°F19.5°C 55.8°F13.2°C 67% 4.0 mph ESE6.4 kmh ESE 8.0 mph12.9 kmh 29.49 in998.6 mb 0.00 in0.0 mm 0.00 in0.0 mm 0.00 in0.0 mm
09:08 AM 67.0°F19.4°C 56.1°F13.4°C 68% 2.0 mph SSE3.2 kmh SSE 8.0 mph12.9 kmh 29.49 in998.6 mb 0.00 in0.0 mm 0.00 in0.0 mm 0.00 in0.0 mm
09:10 AM 67.1°F19.5°C 56.2°F13.4°C 68% 5.0 mph S8.0 kmh S 8.0 mph12.9 kmh 29.49 in998.6 mb 0.00 in0.0 mm 0.00 in0.0 mm 0.00 in0.0 mm
09:12 AM 67.1°F19.5°C 56.2°F13.4°C 68% 4.0 mph S6.4 kmh S 11.0 mph17.7 kmh 29.49 in998.6 mb 0.00 in0.0 mm 0.00 in0.0 mm 0.00 in0.0 mm
09:14 AM 67.1°F19.5°C 56.2°F13.4°C 68% 5.0 mph SE8.0 kmh SE 11.0 mph17.7 kmh 29.49 in998.6 mb 0.00 in0.0 mm 0.00 in0.0 mm 0.00 in0.0 mm
09:16 AM 67.2°F19.6°C 56.7°F13.7°C 69% 5.0 mph SSE8.0 kmh SSE 11.0 mph17.7 kmh 29.49 in998.6 mb 0.00 in0.0 mm 0.00 in0.0 mm 0.00 in0.0 mm
09:18 AM 67.2°F19.6°C 56.7°F13.7°C 69% 4.0 mph SE6.4 kmh SE 11.0 mph17.7 kmh 29.50 in999.0 mb 0.00 in0.0 mm 0.00 in0.0 mm 0.00 in0.0 mm
09:20 AM 67.2°F19.6°C 56.7°F13.7°C 69% 5.0 mph SE8.0 kmh SE 11.0 mph17.7 kmh 29.50 in999.0 mb 0.00 in0.0 mm 0.00 in0.0 mm 0.00 in0.0 mm
09:22 AM 67.3°F19.6°C 56.8°F13.8°C 69% 5.0 mph SE8.0 kmh SE 11.0 mph17.7 kmh 29.49 in998.6 mb 0.00 in0.0 mm 0.00 in0.0 mm 0.00 in0.0 mm
09:24 AM 67.3°F19.6°C 56.8°F13.8°C 69% 7.0 mph SE11.3 kmh SE 11.0 mph17.7 kmh 29.49 in998.6 mb 0.00 in0.0 mm 0.00 in0.0 mm 0.00 in0.0 mm
09:26 AM 67.3°F19.6°C 57.2°F14.0°C 70% 4.0 mph S6.4 kmh S 11.0 mph17.7 kmh 29.50 in999.0 mb 0.00 in0.0 mm 0.00 in0.0 mm 0.00 in0.0 mm
09:27 AM 67.3°F19.6°C 57.2°F14.0°C 70% 7.0 mph S11.3 kmh S 11.0 mph17.7 kmh 29.50 in999.0 mb 0.00 in0.0 mm 0.00 in0.0 mm 0.00 in0.0 mm
09:30 AM 67.3°F19.6°C 57.2°F14.0°C 70% 5.0 mph SSE8.0 kmh SSE 12.0 mph19.3 kmh 29.50 in999.0 mb 0.00 in0.0 mm 0.00 in0.0 mm 0.00 in0.0 mm
09:32 AM 67.3°F19.6°C 57.2°F14.0°C 70% 4.0 mph SSW6.4 kmh SSW 12.0 mph19.3 kmh 29.50 in999.0 mb 0.00 in0.0 mm 0.00 in0.0 mm 0.00 in0.0 mm
09:34 AM 67.2°F19.6°C 57.5°F14.2°C 71% 3.0 mph S4.8 kmh S 10.0 mph16.1 kmh 29.50 in999.0 mb 0.00 in0.0 mm 0.00 in0.0 mm 0.00 in0.0 mm
09:36 AM 67.3°F19.6°C 57.6°F14.2°C 71% 9.0 mph S14.5 kmh S 10.0 mph16.1 kmh 29.50 in999.0 mb 0.00 in0.0 mm 0.00 in0.0 mm 0.00 in0.0 mm
09:38 AM 67.3°F19.6°C 57.6°F14.2°C 71% 8.0 mph SSE12.9 kmh SSE 10.0 mph16.1 kmh 29.50 in999.0 mb 0.00 in0.0 mm 0.00 in0.0 mm 0.00 in0.0 mm
09:40 AM 67.3°F19.6°C 57.6°F14.2°C 71% 8.0 mph S12.9 kmh S 10.0 mph16.1 kmh 29.50 in999.0 mb 0.00 in0.0 mm 0.00 in0.0 mm 0.00 in0.0 mm
09:42 AM 67.3°F19.6°C 57.6°F14.2°C 71% 7.0 mph S11.3 kmh S 12.0 mph19.3 kmh 29.50 in999.0 mb 0.00 in0.0 mm 0.00 in0.0 mm 0.00 in0.0 mm
09:44 AM 67.4°F19.7°C 58.1°F14.5°C 72% 5.0 mph S8.0 kmh S 16.0 mph25.7 kmh 29.50 in999.0 mb 0.00 in0.0 mm 0.00 in0.0 mm 0.00 in0.0 mm
09:46 AM 67.4°F19.7°C 58.1°F14.5°C 72% 6.0 mph S9.7 kmh S 16.0 mph25.7 kmh 29.50 in999.0 mb 0.00 in0.0 mm 0.00 in0.0 mm 0.00 in0.0 mm
09:48 AM 67.4°F19.7°C 58.1°F14.5°C 72% 7.0 mph SE11.3 kmh SE 16.0 mph25.7 kmh 29.50 in999.0 mb 0.00 in0.0 mm 0.00 in0.0 mm 0.00 in0.0 mm
09:50 AM 67.4°F19.7°C 58.1°F14.5°C 72% 9.0 mph SE14.5 kmh SE 16.0 mph25.7 kmh 29.50 in999.0 mb 0.00 in0.0 mm 0.00 in0.0 mm 0.00 in0.0 mm
09:52 AM 67.5°F19.7°C 58.2°F14.6°C 72% 3.0 mph SE4.8 kmh SE 16.0 mph25.7 kmh 29.50 in999.0 mb 0.00 in0.0 mm 0.00 in0.0 mm 0.00 in0.0 mm
09:54 AM 67.5°F19.7°C 58.2°F14.6°C 72% 4.0 mph S6.4 kmh S 16.0 mph25.7 kmh 29.50 in999.0 mb 0.00 in0.0 mm 0.00 in0.0 mm 0.00 in0.0 mm
09:56 AM 67.5°F19.7°C 58.6°F14.8°C 73% 8.0 mph SE12.9 kmh SE 16.0 mph25.7 kmh 29.50 in999.0 mb 0.00 in0.0 mm 0.00 in0.0 mm 0.00 in0.0 mm
09:58 AM 67.5°F19.7°C 58.6°F14.8°C 73% 7.0 mph S11.3 kmh S 16.0 mph25.7 kmh 29.50 in999.0 mb 0.00 in0.0 mm 0.00 in0.0 mm 0.00 in0.0 mm
10:00 AM 67.5°F19.7°C 58.6°F14.8°C 73% 6.0 mph SE9.7 kmh SE 16.0 mph25.7 kmh 29.50 in999.0 mb 0.00 in0.0 mm 0.00 in0.0 mm 0.00 in0.0 mm
10:02 AM 67.5°F19.7°C 58.6°F14.8°C 73% 5.0 mph SE8.0 kmh SE 16.0 mph25.7 kmh 29.50 in999.0 mb 0.00 in0.0 mm 0.00 in0.0 mm 0.00 in0.0 mm
10:04 AM 67.5°F19.7°C 58.6°F14.8°C 73% 8.0 mph SSE12.9 kmh SSE 8.0 mph12.9 kmh 29.50 in999.0 mb 0.00 in0.0 mm 0.00 in0.0 mm 0.00 in0.0 mm
10:06 AM 67.5°F19.7°C 58.9°F14.9°C 74% 10.0 mph S16.1 kmh S 13.0 mph20.9 kmh 29.50 in999.0 mb 0.00 in0.0 mm 0.00 in0.0 mm 0.00 in0.0 mm
10:08 AM 67.5°F19.7°C 58.9°F14.9°C 74% 4.0 mph S6.4 kmh S 13.0 mph20.9 kmh 29.50 in999.0 mb 0.00 in0.0 mm 0.00 in0.0 mm 0.00 in0.0 mm
10:10 AM 67.4°F19.7°C 58.8°F14.9°C 74% 5.0 mph SE8.0 kmh SE 13.0 mph20.9 kmh 29.50 in999.0 mb 0.00 in0.0 mm 0.00 in0.0 mm 0.00 in0.0 mm
10:12 AM 67.4°F19.7°C 59.2°F15.1°C 75% 5.0 mph SE8.0 kmh SE 13.0 mph20.9 kmh 29.50 in999.0 mb 0.00 in0.0 mm 0.00 in0.0 mm 0.00 in0.0 mm
10:14 AM 67.3°F19.6°C 59.1°F15.1°C 75% 4.0 mph S6.4 kmh S 13.0 mph20.9 kmh 29.50 in999.0 mb 0.00 in0.0 mm 0.00 in0.0 mm 0.00 in0.0 mm
10:16 AM 67.3°F19.6°C 59.1°F15.1°C 75% 4.0 mph SSE6.4 kmh SSE 13.0 mph20.9 kmh 29.50 in999.0 mb 0.00 in0.0 mm 0.00 in0.0 mm 0.00 in0.0 mm
10:18 AM 67.3°F19.6°C 59.1°F15.1°C 75% 3.0 mph S4.8 kmh S 13.0 mph20.9 kmh 29.50 in999.0 mb 0.00 in0.0 mm 0.00 in0.0 mm 0.00 in0.0 mm
10:20 AM 67.3°F19.6°C 59.1°F15.1°C 75% 7.0 mph S11.3 kmh S 13.0 mph20.9 kmh 29.50 in999.0 mb 0.00 in0.0 mm 0.00 in0.0 mm 0.00 in0.0 mm
10:22 AM 67.4°F19.7°C 59.2°F15.1°C 75% 3.0 mph SSW4.8 kmh SSW 13.0 mph20.9 kmh 29.50 in999.0 mb 0.00 in0.0 mm 0.00 in0.0 mm 0.00 in0.0 mm
10:24 AM 67.3°F19.6°C 59.1°F15.1°C 75% 3.0 mph SE4.8 kmh SE 13.0 mph20.9 kmh 29.50 in999.0 mb 0.00 in0.0 mm 0.00 in0.0 mm 0.00 in0.0 mm
10:25 AM 67.3°F19.6°C 59.5°F15.3°C 76% 4.0 mph S6.4 kmh S 13.0 mph20.9 kmh 29.50 in999.0 mb 0.00 in0.0 mm 0.00 in0.0 mm 0.00 in0.0 mm
10:28 AM 67.3°F19.6°C 59.5°F15.3°C 76% 8.0 mph S12.9 kmh S 13.0 mph20.9 kmh 29.51 in999.3 mb 0.00 in0.0 mm 0.00 in0.0 mm 0.00 in0.0 mm
10:30 AM 67.4°F19.7°C 59.6°F15.3°C 76% 7.0 mph SSW11.3 kmh SSW 13.0 mph20.9 kmh 29.50 in999.0 mb 0.00 in0.0 mm 0.00 in0.0 mm 0.00 in0.0 mm
10:32 AM 67.3°F19.6°C 59.5°F15.3°C 76% 6.0 mph S9.7 kmh S 13.0 mph20.9 kmh 29.50 in999.0 mb 0.00 in0.0 mm 0.00 in0.0 mm 0.00 in0.0 mm
10:34 AM 67.3°F19.6°C 59.5°F15.3°C 76% 7.0 mph S11.3 kmh S 13.0 mph20.9 kmh 29.51 in999.3 mb 0.00 in0.0 mm 0.00 in0.0 mm 0.00 in0.0 mm
10:36 AM 67.3°F19.6°C 59.5°F15.3°C 76% 8.0 mph S12.9 kmh S 13.0 mph20.9 kmh 29.51 in999.3 mb 0.00 in0.0 mm 0.00 in0.0 mm 0.00 in0.0 mm
10:38 AM 67.2°F19.6°C 59.4°F15.2°C 76% 8.0 mph S12.9 kmh S 13.0 mph20.9 kmh 29.51 in999.3 mb 0.00 in0.0 mm 0.00 in0.0 mm 0.00 in0.0 mm
10:40 AM 67.2°F19.6°C 59.4°F15.2°C 76% 8.0 mph S12.9 kmh S 19.0 mph30.6 kmh 29.51 in999.3 mb 0.00 in0.0 mm 0.00 in0.0 mm 0.00 in0.0 mm
10:42 AM 67.2°F19.6°C 59.4°F15.2°C 76% 4.0 mph S6.4 kmh S 19.0 mph30.6 kmh 29.51 in999.3 mb 0.00 in0.0 mm 0.00 in0.0 mm 0.00 in0.0 mm
10:44 AM 67.2°F19.6°C 59.8°F15.4°C 77% 11.0 mph S17.7 kmh S 19.0 mph30.6 kmh 29.51 in999.3 mb 0.00 in0.0 mm 0.00 in0.0 mm 0.00 in0.0 mm
10:46 AM 67.2°F19.6°C 59.8°F15.4°C 77% 6.0 mph S9.7 kmh S 19.0 mph30.6 kmh 29.51 in999.3 mb 0.00 in0.0 mm 0.00 in0.0 mm 0.00 in0.0 mm
10:48 AM 67.2°F19.6°C 59.8°F15.4°C 77% 3.0 mph SSE4.8 kmh SSE 19.0 mph30.6 kmh 29.51 in999.3 mb 0.00 in0.0 mm 0.00 in0.0 mm 0.00 in0.0 mm
10:50 AM 67.2°F19.6°C 59.8°F15.4°C 77% 12.0 mph SSE19.3 kmh SSE 19.0 mph30.6 kmh 29.51 in999.3 mb 0.00 in0.0 mm 0.00 in0.0 mm 0.00 in0.0 mm
10:52 AM 67.2°F19.6°C 59.8°F15.4°C 77% 7.0 mph SSE11.3 kmh SSE 19.0 mph30.6 kmh 29.51 in999.3 mb 0.00 in0.0 mm 0.00 in0.0 mm 0.00 in0.0 mm
10:54 AM 67.1°F19.5°C 59.7°F15.4°C 77% 7.0 mph S11.3 kmh S 19.0 mph30.6 kmh 29.51 in999.3 mb 0.00 in0.0 mm 0.00 in0.0 mm 0.00 in0.0 mm
10:56 AM 67.1°F19.5°C 59.7°F15.4°C 77% 10.0 mph SSW16.1 kmh SSW 19.0 mph30.6 kmh 29.51 in999.3 mb 0.00 in0.0 mm 0.00 in0.0 mm 0.00 in0.0 mm
10:58 AM 67.1°F19.5°C 59.7°F15.4°C 77% 4.0 mph SSE6.4 kmh SSE 19.0 mph30.6 kmh 29.51 in999.3 mb 0.00 in0.0 mm 0.00 in0.0 mm 0.00 in0.0 mm
11:00 AM 67.1°F19.5°C 59.7°F15.4°C 77% 8.0 mph S12.9 kmh S 19.0 mph30.6 kmh 29.51 in999.3 mb 0.00 in0.0 mm 0.00 in0.0 mm 0.00 in0.0 mm
11:02 AM 67.1°F19.5°C 59.7°F15.4°C 77% 10.0 mph S16.1 kmh S 19.0 mph30.6 kmh 29.51 in999.3 mb 0.00 in0.0 mm 0.00 in0.0 mm 0.00 in0.0 mm
11:04 AM 67.2°F19.6°C 59.8°F15.4°C 77% 4.0 mph S6.4 kmh S 7.0 mph11.3 kmh 29.51 in999.3 mb 0.00 in0.0 mm 0.00 in0.0 mm 0.00 in0.0 mm
11:06 AM 67.2°F19.6°C 60.1°F15.6°C 78% 5.0 mph S8.0 kmh S 10.0 mph16.1 kmh 29.51 in999.3 mb 0.00 in0.0 mm 0.00 in0.0 mm 0.00 in0.0 mm
11:08 AM 67.2°F19.6°C 60.1°F15.6°C 78% 7.0 mph S11.3 kmh S 10.0 mph16.1 kmh 29.51 in999.3 mb 0.00 in0.0 mm 0.00 in0.0 mm 0.00 in0.0 mm
11:10 AM 67.3°F19.6°C 59.9°F15.5°C 77% 11.0 mph S17.7 kmh S 12.0 mph19.3 kmh 29.51 in999.3 mb 0.00 in0.0 mm 0.00 in0.0 mm 0.00 in0.0 mm
11:12 AM 67.3°F19.6°C 59.9°F15.5°C 77% 7.0 mph SE11.3 kmh SE 12.0 mph19.3 kmh 29.51 in999.3 mb 0.00 in0.0 mm 0.00 in0.0 mm 0.00 in0.0 mm
11:14 AM 67.4°F19.7°C 60.0°F15.6°C 77% 7.0 mph S11.3 kmh S 12.0 mph19.3 kmh 29.51 in999.3 mb 0.00 in0.0 mm 0.00 in0.0 mm 0.00 in0.0 mm
11:16 AM 67.5°F19.7°C 60.0°F15.6°C 77% 9.0 mph SE14.5 kmh SE 12.0 mph19.3 kmh 29.51 in999.3 mb 0.00 in0.0 mm 0.00 in0.0 mm 0.00 in0.0 mm
11:18 AM 67.6°F19.8°C 60.1°F15.6°C 77% 5.0 mph S8.0 kmh S 12.0 mph19.3 kmh 29.51 in999.3 mb 0.00 in0.0 mm 0.00 in0.0 mm 0.00 in0.0 mm
11:20 AM 67.7°F19.8°C 60.2°F15.7°C 77% 5.0 mph SSW8.0 kmh SSW 12.0 mph19.3 kmh 29.51 in999.3 mb 0.00 in0.0 mm 0.00 in0.0 mm 0.00 in0.0 mm
11:22 AM 67.7°F19.8°C 60.2°F15.7°C 77% 13.0 mph SE20.9 kmh SE 14.0 mph22.5 kmh 29.51 in999.3 mb 0.00 in0.0 mm 0.00 in0.0 mm 0.00 in0.0 mm
11:24 AM 67.8°F19.9°C 60.3°F15.7°C 77% 12.0 mph S19.3 kmh S 16.0 mph25.7 kmh 29.51 in999.3 mb 0.00 in0.0 mm 0.00 in0.0 mm 0.00 in0.0 mm
11:26 AM 67.9°F19.9°C 60.4°F15.8°C 77% 6.0 mph S9.7 kmh S 16.0 mph25.7 kmh 29.51 in999.3 mb 0.00 in0.0 mm 0.00 in0.0 mm 0.00 in0.0 mm
11:28 AM 67.8°F19.9°C 60.3°F15.7°C 77% 15.0 mph S24.1 kmh S 16.0 mph25.7 kmh 29.51 in999.3 mb 0.00 in0.0 mm 0.00 in0.0 mm 0.00 in0.0 mm
11:30 AM 67.9°F19.9°C 60.4°F15.8°C 77% 9.0 mph S14.5 kmh S 18.0 mph29.0 kmh 29.50 in999.0 mb 0.00 in0.0 mm 0.00 in0.0 mm 0.00 in0.0 mm
11:32 AM 67.9°F19.9°C 60.4°F15.8°C 77% 11.0 mph S17.7 kmh S 18.0 mph29.0 kmh 29.50 in999.0 mb 0.00 in0.0 mm 0.00 in0.0 mm 0.00 in0.0 mm
11:34 AM 67.9°F19.9°C 60.4°F15.8°C 77% 9.0 mph S14.5 kmh S 12.0 mph19.3 kmh 29.50 in999.0 mb 0.00 in0.0 mm 0.00 in0.0 mm 0.00 in0.0 mm
11:36 AM 67.9°F19.9°C 60.4°F15.8°C 77% 10.0 mph ESE16.1 kmh ESE 13.0 mph20.9 kmh 29.50 in999.0 mb 0.00 in0.0 mm 0.00 in0.0 mm 0.00 in0.0 mm
11:38 AM 68.0°F20.0°C 60.5°F15.8°C 77% 4.0 mph SW6.4 kmh SW 17.0 mph27.4 kmh 29.50 in999.0 mb 0.00 in0.0 mm 0.00 in0.0 mm 0.00 in0.0 mm
11:40 AM 68.0°F20.0°C 60.5°F15.8°C 77% 17.0 mph S27.4 kmh S 17.0 mph27.4 kmh 29.50 in999.0 mb 0.00 in0.0 mm 0.00 in0.0 mm 0.00 in0.0 mm
11:42 AM 68.0°F20.0°C 60.5°F15.8°C 77% 7.0 mph SE11.3 kmh SE 18.0 mph29.0 kmh 29.50 in999.0 mb 0.00 in0.0 mm 0.00 in0.0 mm 0.00 in0.0 mm
11:44 AM 68.0°F20.0°C 60.5°F15.8°C 77% 12.0 mph S19.3 kmh S 18.0 mph29.0 kmh 29.50 in999.0 mb 0.00 in0.0 mm 0.00 in0.0 mm 0.00 in0.0 mm
11:46 AM 68.2°F20.1°C 60.7°F15.9°C 77% 13.0 mph SSE20.9 kmh SSE 18.0 mph29.0 kmh 29.50 in999.0 mb 0.00 in0.0 mm 0.00 in0.0 mm 0.00 in0.0 mm
11:48 AM 68.2°F20.1°C 60.7°F15.9°C 77% 5.0 mph SW8.0 kmh SW 18.0 mph29.0 kmh 29.50 in999.0 mb 0.00 in0.0 mm 0.00 in0.0 mm 0.00 in0.0 mm
11:50 AM 68.2°F20.1°C 60.7°F15.9°C 77% 6.0 mph SSE9.7 kmh SSE 18.0 mph29.0 kmh 29.50 in999.0 mb 0.00 in0.0 mm 0.00 in0.0 mm 0.00 in0.0 mm
11:52 AM 68.3°F20.2°C 60.8°F16.0°C 77% 7.0 mph S11.3 kmh S 18.0 mph29.0 kmh 29.50 in999.0 mb 0.00 in0.0 mm 0.00 in0.0 mm 0.00 in0.0 mm
11:54 AM 68.4°F20.2°C 60.9°F16.1°C 77% 10.0 mph S16.1 kmh S 18.0 mph29.0 kmh 29.50 in999.0 mb 0.00 in0.0 mm 0.00 in0.0 mm 0.00 in0.0 mm
11:56 AM 68.4°F20.2°C 60.9°F16.1°C 77% 6.0 mph SW9.7 kmh SW 18.0 mph29.0 kmh 29.50 in999.0 mb 0.00 in0.0 mm 0.00 in0.0 mm 0.00 in0.0 mm
11:58 AM 68.5°F20.3°C 60.6°F15.9°C 76% 9.0 mph SSW14.5 kmh SSW 18.0 mph29.0 kmh 29.50 in999.0 mb 0.00 in0.0 mm 0.00 in0.0 mm 0.00 in0.0 mm
12:00 PM 68.5°F20.3°C 60.6°F15.9°C 76% 9.0 mph S14.5 kmh S 18.0 mph29.0 kmh 29.50 in999.0 mb 0.00 in0.0 mm 0.00 in0.0 mm 0.00 in0.0 mm
12:02 PM 68.6°F20.3°C 60.7°F15.9°C 76% 5.0 mph S8.0 kmh S 18.0 mph29.0 kmh 29.50 in999.0 mb 0.00 in0.0 mm 0.00 in0.0 mm 0.00 in0.0 mm
12:04 PM 68.6°F20.3°C 60.7°F15.9°C 76% 9.0 mph SSW14.5 kmh SSW 10.0 mph16.1 kmh 29.50 in999.0 mb 0.00 in0.0 mm 0.00 in0.0 mm 0.00 in0.0 mm
12:06 PM 68.7°F20.4°C 60.8°F16.0°C 76% 8.0 mph S12.9 kmh S 11.0 mph17.7 kmh 29.50 in999.0 mb 0.00 in0.0 mm 0.00 in0.0 mm 0.00 in0.0 mm
12:08 PM 68.7°F20.4°C 60.8°F16.0°C 76% 7.0 mph S11.3 kmh S 11.0 mph17.7 kmh 29.49 in998.6 mb 0.00 in0.0 mm 0.00 in0.0 mm 0.00 in0.0 mm
12:10 PM 68.7°F20.4°C 60.8°F16.0°C 76% 6.0 mph S9.7 kmh S 11.0 mph17.7 kmh 29.49 in998.6 mb 0.00 in0.0 mm 0.00 in0.0 mm 0.00 in0.0 mm
12:12 PM 68.8°F20.4°C 60.9°F16.1°C 76% 4.0 mph SE6.4 kmh SE 11.0 mph17.7 kmh 29.49 in998.6 mb 0.00 in0.0 mm 0.00 in0.0 mm 0.00 in0.0 mm
12:14 PM 68.9°F20.5°C 61.0°F16.1°C 76% 8.0 mph SSE12.9 kmh SSE 11.0 mph17.7 kmh 29.49 in998.6 mb 0.00 in0.0 mm 0.00 in0.0 mm 0.00 in0.0 mm
12:16 PM 68.9°F20.5°C 61.0°F16.1°C 76% 7.0 mph S11.3 kmh S 13.0 mph20.9 kmh 29.49 in998.6 mb 0.00 in0.0 mm 0.00 in0.0 mm 0.00 in0.0 mm
12:18 PM 69.0°F20.6°C 60.8°F16.0°C 75% 6.0 mph S9.7 kmh S 16.0 mph25.7 kmh 29.49 in998.6 mb 0.00 in0.0 mm 0.00 in0.0 mm 0.00 in0.0 mm
12:20 PM 69.1°F20.6°C 60.9°F16.1°C 75% 4.0 mph SE6.4 kmh SE 16.0 mph25.7 kmh 29.49 in998.6 mb 0.00 in0.0 mm 0.00 in0.0 mm 0.00 in0.0 mm
12:22 PM 69.2°F20.7°C 61.0°F16.1°C 75% 6.0 mph S9.7 kmh S 16.0 mph25.7 kmh 29.49 in998.6 mb 0.00 in0.0 mm 0.00 in0.0 mm 0.00 in0.0 mm
12:24 PM 69.4°F20.8°C 61.1°F16.2°C 75% 5.0 mph SSE8.0 kmh SSE 16.0 mph25.7 kmh 29.49 in998.6 mb 0.00 in0.0 mm 0.00 in0.0 mm 0.00 in0.0 mm
12:26 PM 69.5°F20.8°C 60.9°F16.1°C 74% 8.0 mph S12.9 kmh S 16.0 mph25.7 kmh 29.48 in998.3 mb 0.00 in0.0 mm 0.00 in0.0 mm 0.00 in0.0 mm
12:28 PM 69.6°F20.9°C 61.0°F16.1°C 74% 11.0 mph S17.7 kmh S 16.0 mph25.7 kmh 29.48 in998.3 mb 0.00 in0.0 mm 0.00 in0.0 mm 0.00 in0.0 mm
12:30 PM 69.8°F21.0°C 61.2°F16.2°C 74% 7.0 mph SSE11.3 kmh SSE 16.0 mph25.7 kmh 29.48 in998.3 mb 0.00 in0.0 mm 0.00 in0.0 mm 0.00 in0.0 mm
12:32 PM 69.9°F21.1°C 61.2°F16.2°C 74% 5.0 mph SW8.0 kmh SW 16.0 mph25.7 kmh 29.48 in998.3 mb 0.00 in0.0 mm 0.00 in0.0 mm 0.00 in0.0 mm
12:34 PM 70.1°F21.2°C 61.1°F16.2°C 73% 9.0 mph SSW14.5 kmh SSW 12.0 mph19.3 kmh 29.48 in998.3 mb 0.00 in0.0 mm 0.00 in0.0 mm 0.00 in0.0 mm
12:36 PM 70.2°F21.2°C 61.2°F16.2°C 73% 4.0 mph SE6.4 kmh SE 12.0 mph19.3 kmh 29.48 in998.3 mb 0.00 in0.0 mm 0.00 in0.0 mm 0.00 in0.0 mm
12:38 PM 70.3°F21.3°C 61.3°F16.3°C 73% 7.0 mph ESE11.3 kmh ESE 12.0 mph19.3 kmh 29.47 in998.0 mb 0.00 in0.0 mm 0.00 in0.0 mm 0.00 in0.0 mm
12:40 PM 70.4°F21.3°C 61.3°F16.3°C 73% 6.0 mph S9.7 kmh S 12.0 mph19.3 kmh 29.47 in998.0 mb 0.00 in0.0 mm 0.00 in0.0 mm 0.00 in0.0 mm
12:42 PM 70.4°F21.3°C 61.3°F16.3°C 73% 4.0 mph SSE6.4 kmh SSE 12.0 mph19.3 kmh 29.47 in998.0 mb 0.00 in0.0 mm 0.00 in0.0 mm 0.00 in0.0 mm
12:44 PM 70.4°F21.3°C 61.0°F16.1°C 72% 6.0 mph SW9.7 kmh SW 12.0 mph19.3 kmh 29.46 in997.6 mb 0.00 in0.0 mm 0.00 in0.0 mm 0.00 in0.0 mm
12:46 PM 70.5°F21.4°C 61.1°F16.2°C 72% 3.0 mph S4.8 kmh S 12.0 mph19.3 kmh 29.46 in997.6 mb 0.00 in0.0 mm 0.00 in0.0 mm 0.00 in0.0 mm
12:48 PM 70.5°F21.4°C 61.1°F16.2°C 72% 9.0 mph S14.5 kmh S 13.0 mph20.9 kmh 29.46 in997.6 mb 0.00 in0.0 mm 0.00 in0.0 mm 0.00 in0.0 mm
12:50 PM 70.4°F21.3°C 61.0°F16.1°C 72% 8.0 mph S12.9 kmh S 13.0 mph20.9 kmh 29.46 in997.6 mb 0.00 in0.0 mm 0.00 in0.0 mm 0.00 in0.0 mm
12:52 PM 70.5°F21.4°C 61.1°F16.2°C 72% 4.0 mph SE6.4 kmh SE 13.0 mph20.9 kmh 29.46 in997.6 mb 0.00 in0.0 mm 0.00 in0.0 mm 0.00 in0.0 mm
12:54 PM 70.6°F21.4°C 60.8°F16.0°C 71% 4.0 mph SSW6.4 kmh SSW 13.0 mph20.9 kmh 29.46 in997.6 mb 0.00 in0.0 mm 0.00 in0.0 mm 0.00 in0.0 mm
12:56 PM 70.6°F21.4°C 60.8°F16.0°C 71% 8.0 mph S12.9 kmh S 13.0 mph20.9 kmh 29.46 in997.6 mb 0.00 in0.0 mm 0.00 in0.0 mm 0.00 in0.0 mm
12:58 PM 70.7°F21.5°C 60.9°F16.1°C 71% 8.0 mph SSW12.9 kmh SSW 13.0 mph20.9 kmh 29.46 in997.6 mb 0.00 in0.0 mm 0.00 in0.0 mm 0.00 in0.0 mm
01:00 PM 70.7°F21.5°C 60.9°F16.1°C 71% 6.0 mph SSW9.7 kmh SSW 13.0 mph20.9 kmh 29.46 in997.6 mb 0.00 in0.0 mm 0.00 in0.0 mm 0.00 in0.0 mm
01:02 PM 70.7°F21.5°C 60.9°F16.1°C 71% 5.0 mph SE8.0 kmh SE 13.0 mph20.9 kmh 29.45 in997.3 mb 0.00 in0.0 mm 0.00 in0.0 mm 0.00 in0.0 mm
01:04 PM 70.8°F21.6°C 60.9°F16.1°C 71% 9.0 mph S14.5 kmh S 10.0 mph16.1 kmh 29.45 in997.3 mb 0.00 in0.0 mm 0.00 in0.0 mm 0.00 in0.0 mm
01:06 PM 70.8°F21.6°C 60.9°F16.1°C 71% 13.0 mph S20.9 kmh S 13.0 mph20.9 kmh 29.45 in997.3 mb 0.00 in0.0 mm 0.00 in0.0 mm 0.00 in0.0 mm
01:08 PM 70.9°F21.6°C 60.6°F15.9°C 70% 5.0 mph S8.0 kmh S 14.0 mph22.5 kmh 29.45 in997.3 mb 0.00 in0.0 mm 0.00 in0.0 mm 0.00 in0.0 mm
01:10 PM 71.0°F21.7°C 60.7°F15.9°C 70% 8.0 mph S12.9 kmh S 14.0 mph22.5 kmh 29.44 in997.0 mb 0.00 in0.0 mm 0.00 in0.0 mm 0.00 in0.0 mm
01:12 PM 71.1°F21.7°C 60.8°F16.0°C 70% 8.0 mph S12.9 kmh S 14.0 mph22.5 kmh 29.44 in997.0 mb 0.00 in0.0 mm 0.00 in0.0 mm 0.00 in0.0 mm
01:14 PM 71.1°F21.7°C 60.8°F16.0°C 70% 5.0 mph S8.0 kmh S 14.0 mph22.5 kmh 29.44 in997.0 mb 0.00 in0.0 mm 0.00 in0.0 mm 0.00 in0.0 mm
01:16 PM 71.2°F21.8°C 60.9°F16.1°C 70% 5.0 mph S8.0 kmh S 14.0 mph22.5 kmh 29.44 in997.0 mb 0.00 in0.0 mm 0.00 in0.0 mm 0.00 in0.0 mm
01:18 PM 71.3°F21.8°C 61.0°F16.1°C 70% 6.0 mph S9.7 kmh S 14.0 mph22.5 kmh 29.44 in997.0 mb 0.00 in0.0 mm 0.00 in0.0 mm 0.00 in0.0 mm
01:20 PM 71.3°F21.8°C 60.6°F15.9°C 69% 4.0 mph SSW6.4 kmh SSW 14.0 mph22.5 kmh 29.44 in997.0 mb 0.00 in0.0 mm 0.00 in0.0 mm 0.00 in0.0 mm
01:22 PM 71.4°F21.9°C 60.7°F15.9°C 69% 3.0 mph S4.8 kmh S 14.0 mph22.5 kmh 29.44 in997.0 mb 0.00 in0.0 mm 0.00 in0.0 mm 0.00 in0.0 mm
01:24 PM 71.5°F21.9°C 60.8°F16.0°C 69% 8.0 mph S12.9 kmh S 14.0 mph22.5 kmh 29.44 in997.0 mb 0.00 in0.0 mm 0.00 in0.0 mm 0.00 in0.0 mm
01:26 PM 71.5°F21.9°C 60.8°F16.0°C 69% 5.0 mph S8.0 kmh S 14.0 mph22.5 kmh 29.44 in997.0 mb 0.00 in0.0 mm 0.00 in0.0 mm 0.00 in0.0 mm
01:28 PM 71.6°F22.0°C 60.9°F16.1°C 69% 6.0 mph S9.7 kmh S 14.0 mph22.5 kmh 29.44 in997.0 mb 0.00 in0.0 mm 0.00 in0.0 mm 0.00 in0.0 mm
01:30 PM 71.7°F22.1°C 61.0°F16.1°C 69% 6.0 mph SSW9.7 kmh SSW 14.0 mph22.5 kmh 29.44 in997.0 mb 0.00 in0.0 mm 0.00 in0.0 mm 0.00 in0.0 mm
01:32 PM 71.6°F22.0°C 60.5°F15.8°C 68% 6.0 mph S9.7 kmh S 14.0 mph22.5 kmh 29.43 in996.6 mb 0.00 in0.0 mm 0.00 in0.0 mm 0.00 in0.0 mm
01:34 PM 71.7°F22.1°C 60.6°F15.9°C 68% 6.0 mph SSW9.7 kmh SSW 8.0 mph12.9 kmh 29.43 in996.6 mb 0.00 in0.0 mm 0.00 in0.0 mm 0.00 in0.0 mm
01:36 PM 71.7°F22.1°C 60.6°F15.9°C 68% 6.0 mph SSW9.7 kmh SSW 9.0 mph14.5 kmh 29.43 in996.6 mb 0.00 in0.0 mm 0.00 in0.0 mm 0.00 in0.0 mm
01:38 PM 71.7°F22.1°C 60.6°F15.9°C 68% 4.0 mph SW6.4 kmh SW 9.0 mph14.5 kmh 29.43 in996.6 mb 0.00 in0.0 mm 0.00 in0.0 mm 0.00 in0.0 mm
01:40 PM 71.8°F22.1°C 60.7°F15.9°C 68% 6.0 mph S9.7 kmh S 9.0 mph14.5 kmh 29.43 in996.6 mb 0.00 in0.0 mm 0.00 in0.0 mm 0.00 in0.0 mm
01:42 PM 71.8°F22.1°C 60.7°F15.9°C 68% 8.0 mph S12.9 kmh S 9.0 mph14.5 kmh 29.43 in996.6 mb 0.00 in0.0 mm 0.00 in0.0 mm 0.00 in0.0 mm
01:44 PM 71.8°F22.1°C 60.7°F15.9°C 68% 8.0 mph S12.9 kmh S 9.0 mph14.5 kmh 29.42 in996.3 mb 0.00 in0.0 mm 0.00 in0.0 mm 0.00 in0.0 mm
01:46 PM 71.9°F22.2°C 60.8°F16.0°C 68% 4.0 mph S6.4 kmh S 9.0 mph14.5 kmh 29.42 in996.3 mb 0.00 in0.0 mm 0.00 in0.0 mm 0.00 in0.0 mm
01:48 PM 71.9°F22.2°C 60.8°F16.0°C 68% 5.0 mph S8.0 kmh S 9.0 mph14.5 kmh 29.43 in996.6 mb 0.00 in0.0 mm 0.00 in0.0 mm 0.00 in0.0 mm
01:50 PM 71.9°F22.2°C 60.8°F16.0°C 68% 3.0 mph SSW4.8 kmh SSW 9.0 mph14.5 kmh 29.43 in996.6 mb 0.00 in0.0 mm 0.00 in0.0 mm 0.00 in0.0 mm
01:52 PM 71.9°F22.2°C 60.4°F15.8°C 67% 3.0 mph SSE4.8 kmh SSE 9.0 mph14.5 kmh 29.42 in996.3 mb 0.00 in0.0 mm 0.00 in0.0 mm 0.00 in0.0 mm
01:54 PM 72.0°F22.2°C 60.5°F15.8°C 67% 4.0 mph S6.4 kmh S 9.0 mph14.5 kmh 29.42 in996.3 mb 0.00 in0.0 mm 0.00 in0.0 mm 0.00 in0.0 mm
01:56 PM 72.0°F22.2°C 60.9°F16.1°C 68% 5.0 mph S8.0 kmh S 9.0 mph14.5 kmh 29.42 in996.3 mb 0.00 in0.0 mm 0.00 in0.0 mm 0.00 in0.0 mm
01:58 PM 72.0°F22.2°C 60.9°F16.1°C 68% 2.0 mph S3.2 kmh S 9.0 mph14.5 kmh 29.42 in996.3 mb 0.00 in0.0 mm 0.00 in0.0 mm 0.00 in0.0 mm
02:00 PM 72.1°F22.3°C 60.6°F15.9°C 67% 5.0 mph S8.0 kmh S 9.0 mph14.5 kmh 29.42 in996.3 mb 0.00 in0.0 mm 0.00 in0.0 mm 0.00 in0.0 mm
02:02 PM 72.1°F22.3°C 60.6°F15.9°C 67% 4.0 mph SSE6.4 kmh SSE 9.0 mph14.5 kmh 29.42 in996.3 mb 0.00 in0.0 mm 0.00 in0.0 mm 0.00 in0.0 mm
02:04 PM 72.2°F22.3°C 61.1°F16.2°C 68% 1.0 mph SSE1.6 kmh SSE 2.0 mph3.2 kmh 29.42 in996.3 mb 0.00 in0.0 mm 0.00 in0.0 mm 0.00 in0.0 mm
02:06 PM 72.2°F22.3°C 61.1°F16.2°C 68% 3.0 mph SSE4.8 kmh SSE 3.0 mph4.8 kmh 29.42 in996.3 mb 0.00 in0.0 mm 0.00 in0.0 mm 0.00 in0.0 mm
02:08 PM 72.3°F22.4°C 61.2°F16.2°C 68% 2.0 mph SE3.2 kmh SE 4.0 mph6.4 kmh 29.42 in996.3 mb 0.00 in0.0 mm 0.00 in0.0 mm 0.00 in0.0 mm
02:10 PM 72.3°F22.4°C 60.7°F15.9°C 67% 1.0 mph S1.6 kmh S 5.0 mph8.0 kmh 29.42 in996.3 mb 0.00 in0.0 mm 0.00 in0.0 mm 0.00 in0.0 mm
02:12 PM 72.3°F22.4°C 60.7°F15.9°C 67% 2.0 mph SSE3.2 kmh SSE 5.0 mph8.0 kmh 29.42 in996.3 mb 0.00 in0.0 mm 0.00 in0.0 mm 0.00 in0.0 mm
02:14 PM 72.4°F22.4°C 60.8°F16.0°C 67% 4.0 mph SSE6.4 kmh SSE 6.0 mph9.7 kmh 29.42 in996.3 mb 0.00 in0.0 mm 0.00 in0.0 mm 0.00 in0.0 mm
02:16 PM 72.4°F22.4°C 60.8°F16.0°C 67% 2.0 mph S3.2 kmh S 6.0 mph9.7 kmh 29.42 in996.3 mb 0.00 in0.0 mm 0.00 in0.0 mm 0.00 in0.0 mm
02:18 PM 72.5°F22.5°C 60.9°F16.1°C 67% 1.0 mph S1.6 kmh S 6.0 mph9.7 kmh 29.42 in996.3 mb 0.00 in0.0 mm 0.00 in0.0 mm 0.00 in0.0 mm
02:20 PM 72.6°F22.6°C 61.0°F16.1°C 67% 1.0 mph SE1.6 kmh SE 6.0 mph9.7 kmh 29.42 in996.3 mb 0.00 in0.0 mm 0.00 in0.0 mm 0.00 in0.0 mm
02:22 PM 72.7°F22.6°C 61.1°F16.2°C 67% 4.0 mph S6.4 kmh S 6.0 mph9.7 kmh 29.42 in996.3 mb 0.00 in0.0 mm 0.00 in0.0 mm 0.00 in0.0 mm
02:24 PM 72.8°F22.7°C 61.2°F16.2°C 67% 7.0 mph SE11.3 kmh SE 7.0 mph11.3 kmh 29.42 in996.3 mb 0.00 in0.0 mm 0.00 in0.0 mm 0.00 in0.0 mm
02:26 PM 73.0°F22.8°C 61.0°F16.1°C 66% 4.0 mph SSW6.4 kmh SSW 8.0 mph12.9 kmh 29.42 in996.3 mb 0.00 in0.0 mm 0.00 in0.0 mm 0.00 in0.0 mm
02:28 PM 73.1°F22.8°C 61.1°F16.2°C 66% 1.0 mph S1.6 kmh S 9.0 mph14.5 kmh 29.42 in996.3 mb 0.00 in0.0 mm 0.00 in0.0 mm 0.00 in0.0 mm
02:30 PM 73.2°F22.9°C 61.2°F16.2°C 66% 3.0 mph SSE4.8 kmh SSE 9.0 mph14.5 kmh 29.42 in996.3 mb 0.00 in0.0 mm 0.00 in0.0 mm 0.00 in0.0 mm
02:32 PM 73.2°F22.9°C 61.2°F16.2°C 66% 3.0 mph SE4.8 kmh SE 10.0 mph16.1 kmh 29.42 in996.3 mb 0.00 in0.0 mm 0.00 in0.0 mm 0.00 in0.0 mm
02:34 PM 73.2°F22.9°C 61.2°F16.2°C 66% 5.0 mph S8.0 kmh S 8.0 mph12.9 kmh 29.42 in996.3 mb 0.00 in0.0 mm 0.00 in0.0 mm 0.00 in0.0 mm
02:36 PM 73.2°F22.9°C 60.7°F15.9°C 65% 8.0 mph S12.9 kmh S 8.0 mph12.9 kmh 29.42 in996.3 mb 0.00 in0.0 mm 0.00 in0.0 mm 0.00 in0.0 mm
02:38 PM 73.2°F22.9°C 61.2°F16.2°C 66% 2.0 mph SSE3.2 kmh SSE 12.0 mph19.3 kmh 29.43 in996.6 mb 0.00 in0.0 mm 0.00 in0.0 mm 0.00 in0.0 mm
02:40 PM 73.2°F22.9°C 61.2°F16.2°C 66% 3.0 mph SE4.8 kmh SE 12.0 mph19.3 kmh 29.43 in996.6 mb 0.00 in0.0 mm 0.00 in0.0 mm 0.00 in0.0 mm
02:42 PM 73.1°F22.8°C 60.7°F15.9°C 65% 2.0 mph SE3.2 kmh SE 12.0 mph19.3 kmh 29.43 in996.6 mb 0.00 in0.0 mm 0.00 in0.0 mm 0.00 in0.0 mm
02:44 PM 73.2°F22.9°C 61.2°F16.2°C 66% 3.0 mph S4.8 kmh S 12.0 mph19.3 kmh 29.43 in996.6 mb 0.00 in0.0 mm 0.00 in0.0 mm 0.00 in0.0 mm
02:46 PM 73.2°F22.9°C 60.7°F15.9°C 65% 6.0 mph SSE9.7 kmh SSE 12.0 mph19.3 kmh 29.43 in996.6 mb 0.00 in0.0 mm 0.00 in0.0 mm 0.00 in0.0 mm
02:48 PM 73.3°F22.9°C 60.8°F16.0°C 65% 7.0 mph SSE11.3 kmh SSE 13.0 mph20.9 kmh 29.43 in996.6 mb 0.00 in0.0 mm 0.00 in0.0 mm 0.00 in0.0 mm
02:50 PM 73.5°F23.1°C 61.0°F16.1°C 65% Calm Calm 13.0 mph20.9 kmh 29.43 in996.6 mb 0.00 in0.0 mm 0.00 in0.0 mm 0.00 in0.0 mm
02:52 PM 73.6°F23.1°C 61.1°F16.2°C 65% 2.0 mph S3.2 kmh S 13.0 mph20.9 kmh 29.43 in996.6 mb 0.00 in0.0 mm 0.00 in0.0 mm 0.00 in0.0 mm
02:54 PM 73.8°F23.2°C 60.9°F16.1°C 64% 6.0 mph S9.7 kmh S 13.0 mph20.9 kmh 29.43 in996.6 mb 0.00 in0.0 mm 0.00 in0.0 mm 0.00 in0.0 mm
02:56 PM 73.9°F23.3°C 61.0°F16.1°C 64% 5.0 mph SSE8.0 kmh SSE 13.0 mph20.9 kmh 29.43 in996.6 mb 0.00 in0.0 mm 0.00 in0.0 mm 0.00 in0.0 mm
02:58 PM 73.9°F23.3°C 61.0°F16.1°C 64% 3.0 mph E4.8 kmh E 13.0 mph20.9 kmh 29.43 in996.6 mb 0.00 in0.0 mm 0.00 in0.0 mm 0.00 in0.0 mm
03:00 PM 74.0°F23.3°C 61.1°F16.2°C 64% 2.0 mph SSW3.2 kmh SSW 13.0 mph20.9 kmh 29.43 in996.6 mb 0.00 in0.0 mm 0.00 in0.0 mm 0.00 in0.0 mm
03:02 PM 74.0°F23.3°C 61.1°F16.2°C 64% 4.0 mph SSE6.4 kmh SSE 13.0 mph20.9 kmh 29.43 in996.6 mb 0.00 in0.0 mm 0.00 in0.0 mm 0.00 in0.0 mm
03:04 PM 74.0°F23.3°C 61.1°F16.2°C 64% 6.0 mph S9.7 kmh S 7.0 mph11.3 kmh 29.43 in996.6 mb 0.00 in0.0 mm 0.00 in0.0 mm 0.00 in0.0 mm
03:06 PM 74.0°F23.3°C 61.1°F16.2°C 64% 4.0 mph SSW6.4 kmh SSW 7.0 mph11.3 kmh 29.43 in996.6 mb 0.00 in0.0 mm 0.00 in0.0 mm 0.00 in0.0 mm
03:08 PM 73.9°F23.3°C 61.0°F16.1°C 64% 5.0 mph S8.0 kmh S 7.0 mph11.3 kmh 29.44 in997.0 mb 0.00 in0.0 mm 0.00 in0.0 mm 0.00 in0.0 mm
03:10 PM 73.8°F23.2°C 60.9°F16.1°C 64% 6.0 mph S9.7 kmh S 9.0 mph14.5 kmh 29.44 in997.0 mb 0.00 in0.0 mm 0.00 in0.0 mm 0.00 in0.0 mm
03:12 PM 73.8°F23.2°C 60.9°F16.1°C 64% 8.0 mph SSW12.9 kmh SSW 9.0 mph14.5 kmh 29.44 in997.0 mb 0.00 in0.0 mm 0.00 in0.0 mm 0.00 in0.0 mm
03:14 PM 73.8°F23.2°C 60.9°F16.1°C 64% 3.0 mph E4.8 kmh E 9.0 mph14.5 kmh 29.44 in997.0 mb 0.00 in0.0 mm 0.00 in0.0 mm 0.00 in0.0 mm
03:16 PM 73.8°F23.2°C 60.9°F16.1°C 64% 8.0 mph SE12.9 kmh SE 12.0 mph19.3 kmh 29.44 in997.0 mb 0.00 in0.0 mm 0.00 in0.0 mm 0.00 in0.0 mm
03:18 PM 73.8°F23.2°C 60.9°F16.1°C 64% 9.0 mph S14.5 kmh S 12.0 mph19.3 kmh 29.45 in997.3 mb 0.00 in0.0 mm 0.00 in0.0 mm 0.00 in0.0 mm
03:20 PM 73.9°F23.3°C 61.0°F16.1°C 64% 8.0 mph S12.9 kmh S 12.0 mph19.3 kmh 29.44 in997.0 mb 0.00 in0.0 mm 0.00 in0.0 mm 0.00 in0.0 mm
03:22 PM 74.1°F23.4°C 61.2°F16.2°C 64% 6.0 mph S9.7 kmh S 12.0 mph19.3 kmh 29.44 in997.0 mb 0.00 in0.0 mm 0.00 in0.0 mm 0.00 in0.0 mm
03:24 PM 74.2°F23.4°C 61.3°F16.3°C 64% 4.0 mph S6.4 kmh S 12.0 mph19.3 kmh 29.44 in997.0 mb 0.00 in0.0 mm 0.00 in0.0 mm 0.00 in0.0 mm
03:26 PM 74.4°F23.6°C 61.4°F16.3°C 64% 8.0 mph SSW12.9 kmh SSW 12.0 mph19.3 kmh 29.44 in997.0 mb 0.00 in0.0 mm 0.00 in0.0 mm 0.00 in0.0 mm
03:28 PM 74.3°F23.5°C 61.4°F16.3°C 64% 3.0 mph S4.8 kmh S 12.0 mph19.3 kmh 29.44 in997.0 mb 0.00 in0.0 mm 0.00 in0.0 mm 0.00 in0.0 mm
03:29 PM 74.4°F23.6°C 61.4°F16.3°C 64% 4.0 mph SW6.4 kmh SW 12.0 mph19.3 kmh 29.44 in997.0 mb 0.00 in0.0 mm 0.00 in0.0 mm 0.00 in0.0 mm
03:32 PM 74.4°F23.6°C 61.4°F16.3°C 64% 4.0 mph S6.4 kmh S 12.0 mph19.3 kmh 29.44 in997.0 mb 0.00 in0.0 mm 0.00 in0.0 mm 0.00 in0.0 mm
03:34 PM 74.4°F23.6°C 61.4°F16.3°C 64% 2.0 mph SE3.2 kmh SE 6.0 mph9.7 kmh 29.44 in997.0 mb 0.00 in0.0 mm 0.00 in0.0 mm 0.00 in0.0 mm
03:36 PM 74.4°F23.6°C 61.4°F16.3°C 64% 6.0 mph SSW9.7 kmh SSW 9.0 mph14.5 kmh 29.45 in997.3 mb 0.00 in0.0 mm 0.00 in0.0 mm 0.00 in0.0 mm
03:38 PM 74.2°F23.4°C 61.3°F16.3°C 64% 3.0 mph S4.8 kmh S 11.0 mph17.7 kmh 29.45 in997.3 mb 0.00 in0.0 mm 0.00 in0.0 mm 0.00 in0.0 mm
03:40 PM 74.0°F23.3°C 61.1°F16.2°C 64% 5.0 mph S8.0 kmh S 11.0 mph17.7 kmh 29.45 in997.3 mb 0.00 in0.0 mm 0.00 in0.0 mm 0.00 in0.0 mm
03:42 PM 73.9°F23.3°C 61.0°F16.1°C 64% 6.0 mph S9.7 kmh S 11.0 mph17.7 kmh 29.45 in997.3 mb 0.00 in0.0 mm 0.00 in0.0 mm 0.00 in0.0 mm
03:43 PM 73.9°F23.3°C 61.0°F16.1°C 64% 5.0 mph SSE8.0 kmh SSE 11.0 mph17.7 kmh 29.45 in997.3 mb 0.00 in0.0 mm 0.00 in0.0 mm 0.00 in0.0 mm
03:46 PM 73.8°F23.2°C 60.9°F16.1°C 64% 15.0 mph S24.1 kmh S 15.0 mph24.1 kmh 29.45 in997.3 mb 0.00 in0.0 mm 0.00 in0.0 mm 0.00 in0.0 mm
03:48 PM 73.7°F23.2°C 61.2°F16.2°C 65% 4.0 mph ESE6.4 kmh ESE 15.0 mph24.1 kmh 29.45 in997.3 mb 0.00 in0.0 mm 0.00 in0.0 mm 0.00 in0.0 mm
03:50 PM 73.6°F23.1°C 61.1°F16.2°C 65% 5.0 mph S8.0 kmh S 15.0 mph24.1 kmh 29.45 in997.3 mb 0.00 in0.0 mm 0.00 in0.0 mm 0.00 in0.0 mm
03:52 PM 73.5°F23.1°C 61.0°F16.1°C 65% 8.0 mph S12.9 kmh S 15.0 mph24.1 kmh 29.46 in997.6 mb 0.00 in0.0 mm 0.00 in0.0 mm 0.00 in0.0 mm
03:54 PM 73.3°F22.9°C 61.3°F16.3°C 66% 9.0 mph S14.5 kmh S 15.0 mph24.1 kmh 29.46 in997.6 mb 0.00 in0.0 mm 0.00 in0.0 mm 0.00 in0.0 mm
03:56 PM 73.1°F22.8°C 61.1°F16.2°C 66% 7.0 mph SSE11.3 kmh SSE 15.0 mph24.1 kmh 29.46 in997.6 mb 0.00 in0.0 mm 0.00 in0.0 mm 0.00 in0.0 mm
03:58 PM 73.0°F22.8°C 61.4°F16.3°C 67% 6.0 mph S9.7 kmh S 15.0 mph24.1 kmh 29.46 in997.6 mb 0.00 in0.0 mm 0.00 in0.0 mm 0.00 in0.0 mm
04:00 PM 72.8°F22.7°C 61.2°F16.2°C 67% 6.0 mph S9.7 kmh S 15.0 mph24.1 kmh 29.46 in997.6 mb 0.00 in0.0 mm 0.00 in0.0 mm 0.00 in0.0 mm
04:02 PM 72.8°F22.7°C 61.2°F16.2°C 67% 8.0 mph SE12.9 kmh SE 15.0 mph24.1 kmh 29.46 in997.6 mb 0.00 in0.0 mm 0.00 in0.0 mm 0.00 in0.0 mm
04:04 PM 72.6°F22.6°C 61.4°F16.3°C 68% 5.0 mph S8.0 kmh S 10.0 mph16.1 kmh 29.46 in997.6 mb 0.00 in0.0 mm 0.00 in0.0 mm 0.00 in0.0 mm
04:06 PM 72.5°F22.5°C 61.4°F16.3°C 68% 6.0 mph SSE9.7 kmh SSE 10.0 mph16.1 kmh 29.47 in998.0 mb 0.00 in0.0 mm 0.00 in0.0 mm 0.00 in0.0 mm
04:08 PM 72.3°F22.4°C 61.2°F16.2°C 68% 1.0 mph S1.6 kmh S 10.0 mph16.1 kmh 29.47 in998.0 mb 0.00 in0.0 mm 0.00 in0.0 mm 0.00 in0.0 mm
04:10 PM 72.3°F22.4°C 61.6°F16.4°C 69% 1.0 mph SSW1.6 kmh SSW 11.0 mph17.7 kmh 29.47 in998.0 mb 0.00 in0.0 mm 0.00 in0.0 mm 0.00 in0.0 mm
04:12 PM 72.2°F22.3°C 61.5°F16.4°C 69% 8.0 mph SSW12.9 kmh SSW 12.0 mph19.3 kmh 29.47 in998.0 mb 0.00 in0.0 mm 0.00 in0.0 mm 0.00 in0.0 mm
04:14 PM 72.0°F22.2°C 61.3°F16.3°C 69% 5.0 mph S8.0 kmh S 12.0 mph19.3 kmh 29.47 in998.0 mb 0.00 in0.0 mm 0.00 in0.0 mm 0.00 in0.0 mm
04:16 PM 71.9°F22.2°C 61.6°F16.4°C 70% 5.0 mph SW8.0 kmh SW 12.0 mph19.3 kmh 29.47 in998.0 mb 0.00 in0.0 mm 0.00 in0.0 mm 0.00 in0.0 mm
04:18 PM 71.8°F22.1°C 61.5°F16.4°C 70% 4.0 mph SSW6.4 kmh SSW 12.0 mph19.3 kmh 29.48 in998.3 mb 0.00 in0.0 mm 0.00 in0.0 mm 0.00 in0.0 mm
04:20 PM 71.8°F22.1°C 61.5°F16.4°C 70% 3.0 mph S4.8 kmh S 12.0 mph19.3 kmh 29.49 in998.6 mb 0.00 in0.0 mm 0.00 in0.0 mm 0.00 in0.0 mm
04:22 PM 71.8°F22.1°C 61.5°F16.4°C 70% 6.0 mph SW9.7 kmh SW 12.0 mph19.3 kmh 29.49 in998.6 mb 0.00 in0.0 mm 0.00 in0.0 mm 0.00 in0.0 mm
04:24 PM 71.7°F22.1°C 61.4°F16.3°C 70% 6.0 mph S9.7 kmh S 12.0 mph19.3 kmh 29.49 in998.6 mb 0.00 in0.0 mm 0.00 in0.0 mm 0.00 in0.0 mm
04:26 PM 71.6°F22.0°C 61.3°F16.3°C 70% 2.0 mph S3.2 kmh S 12.0 mph19.3 kmh 29.49 in998.6 mb 0.00 in0.0 mm 0.00 in0.0 mm 0.00 in0.0 mm
04:28 PM 71.6°F22.0°C 61.3°F16.3°C 70% 1.0 mph SSE1.6 kmh SSE 12.0 mph19.3 kmh 29.49 in998.6 mb 0.00 in0.0 mm 0.00 in0.0 mm 0.00 in0.0 mm
04:30 PM 71.6°F22.0°C 61.3°F16.3°C 70% 2.0 mph SSE3.2 kmh SSE 12.0 mph19.3 kmh 29.48 in998.3 mb 0.00 in0.0 mm 0.00 in0.0 mm 0.00 in0.0 mm
04:32 PM 71.5°F21.9°C 61.6°F16.4°C 71% 4.0 mph SSE6.4 kmh SSE 12.0 mph19.3 kmh 29.48 in998.3 mb 0.00 in0.0 mm 0.00 in0.0 mm 0.00 in0.0 mm
04:34 PM 71.5°F21.9°C 61.6°F16.4°C 71% 4.0 mph S6.4 kmh S 6.0 mph9.7 kmh 29.48 in998.3 mb 0.00 in0.0 mm 0.00 in0.0 mm 0.00 in0.0 mm
04:36 PM 71.4°F21.9°C 61.5°F16.4°C 71% 7.0 mph SSE11.3 kmh SSE 7.0 mph11.3 kmh 29.49 in998.6 mb 0.00 in0.0 mm 0.00 in0.0 mm 0.00 in0.0 mm
04:38 PM 71.4°F21.9°C 61.5°F16.4°C 71% 4.0 mph SSE6.4 kmh SSE 7.0 mph11.3 kmh 29.49 in998.6 mb 0.00 in0.0 mm 0.00 in0.0 mm 0.00 in0.0 mm
04:40 PM 71.3°F21.8°C 61.4°F16.3°C 71% 6.0 mph S9.7 kmh S 7.0 mph11.3 kmh 29.50 in999.0 mb 0.00 in0.0 mm 0.00 in0.0 mm 0.00 in0.0 mm
04:42 PM 71.3°F21.8°C 61.4°F16.3°C 71% 6.0 mph S9.7 kmh S 10.0 mph16.1 kmh 29.50 in999.0 mb 0.00 in0.0 mm 0.00 in0.0 mm 0.00 in0.0 mm
04:44 PM 71.2°F21.8°C 61.3°F16.3°C 71% 4.0 mph S6.4 kmh S 10.0 mph16.1 kmh 29.50 in999.0 mb 0.00 in0.0 mm 0.00 in0.0 mm 0.00 in0.0 mm
04:46 PM 71.2°F21.8°C 61.7°F16.5°C 72% 7.0 mph S11.3 kmh S 10.0 mph16.1 kmh 29.50 in999.0 mb 0.00 in0.0 mm 0.00 in0.0 mm 0.00 in0.0 mm
04:48 PM 71.1°F21.7°C 61.6°F16.4°C 72% 3.0 mph SE4.8 kmh SE 10.0 mph16.1 kmh 29.50 in999.0 mb 0.00 in0.0 mm 0.00 in0.0 mm 0.00 in0.0 mm
04:50 PM 71.1°F21.7°C 61.6°F16.4°C 72% 3.0 mph S4.8 kmh S 10.0 mph16.1 kmh 29.50 in999.0 mb 0.00 in0.0 mm 0.00 in0.0 mm 0.00 in0.0 mm
04:52 PM 71.0°F21.7°C 61.5°F16.4°C 72% 5.0 mph SE8.0 kmh SE 10.0 mph16.1 kmh 29.49 in998.6 mb 0.00 in0.0 mm 0.00 in0.0 mm 0.00 in0.0 mm
04:54 PM 70.9°F21.6°C 61.4°F16.3°C 72% 4.0 mph SSW6.4 kmh SSW 10.0 mph16.1 kmh 29.49 in998.6 mb 0.00 in0.0 mm 0.00 in0.0 mm 0.00 in0.0 mm
04:56 PM 70.9°F21.6°C 61.4°F16.3°C 72% 6.0 mph SSE9.7 kmh SSE 10.0 mph16.1 kmh 29.49 in998.6 mb 0.00 in0.0 mm 0.00 in0.0 mm 0.00 in0.0 mm
04:58 PM 70.9°F21.6°C 61.4°F16.3°C 72% 4.0 mph S6.4 kmh S 10.0 mph16.1 kmh 29.49 in998.6 mb 0.00 in0.0 mm 0.00 in0.0 mm 0.00 in0.0 mm
05:00 PM 70.7°F21.5°C 61.2°F16.2°C 72% 5.0 mph SE8.0 kmh SE 10.0 mph16.1 kmh 29.49 in998.6 mb 0.00 in0.0 mm 0.00 in0.0 mm 0.00 in0.0 mm
05:02 PM 70.7°F21.5°C 61.6°F16.4°C 73% 5.0 mph SE8.0 kmh SE 10.0 mph16.1 kmh 29.48 in998.3 mb 0.00 in0.0 mm 0.00 in0.0 mm 0.00 in0.0 mm
05:04 PM 70.6°F21.4°C 61.5°F16.4°C 73% 2.0 mph SE3.2 kmh SE 5.0 mph8.0 kmh 29.48 in998.3 mb 0.00 in0.0 mm 0.00 in0.0 mm 0.00 in0.0 mm
05:06 PM 70.6°F21.4°C 61.5°F16.4°C 73% 1.0 mph SE1.6 kmh SE 5.0 mph8.0 kmh 29.48 in998.3 mb 0.00 in0.0 mm 0.00 in0.0 mm 0.00 in0.0 mm
05:08 PM 70.5°F21.4°C 61.4°F16.3°C 73% 6.0 mph SSE9.7 kmh SSE 6.0 mph9.7 kmh 29.49 in998.6 mb 0.00 in0.0 mm 0.00 in0.0 mm 0.00 in0.0 mm
05:10 PM 70.4°F21.3°C 61.3°F16.3°C 73% 4.0 mph SSE6.4 kmh SSE 6.0 mph9.7 kmh 29.49 in998.6 mb 0.00 in0.0 mm 0.00 in0.0 mm 0.00 in0.0 mm
05:12 PM 70.3°F21.3°C 61.3°F16.3°C 73% 4.0 mph SE6.4 kmh SE 6.0 mph9.7 kmh 29.49 in998.6 mb 0.00 in0.0 mm 0.00 in0.0 mm 0.00 in0.0 mm
05:14 PM 70.2°F21.2°C 61.5°F16.4°C 74% 3.0 mph SSE4.8 kmh SSE 8.0 mph12.9 kmh 29.49 in998.6 mb 0.00 in0.0 mm 0.00 in0.0 mm 0.00 in0.0 mm
05:16 PM 70.2°F21.2°C 61.5°F16.4°C 74% 1.0 mph S1.6 kmh S 8.0 mph12.9 kmh 29.49 in998.6 mb 0.00 in0.0 mm 0.00 in0.0 mm 0.00 in0.0 mm
05:18 PM 70.2°F21.2°C 61.5°F16.4°C 74% 4.0 mph S6.4 kmh S 8.0 mph12.9 kmh 29.50 in999.0 mb 0.00 in0.0 mm 0.00 in0.0 mm 0.00 in0.0 mm
05:20 PM 70.1°F21.2°C 61.4°F16.3°C 74% 4.0 mph S6.4 kmh S 8.0 mph12.9 kmh 29.50 in999.0 mb 0.00 in0.0 mm 0.00 in0.0 mm 0.00 in0.0 mm
05:22 PM 70.1°F21.2°C 61.4°F16.3°C 74% 2.0 mph S3.2 kmh S 8.0 mph12.9 kmh 29.50 in999.0 mb 0.00 in0.0 mm 0.00 in0.0 mm 0.00 in0.0 mm
05:24 PM 70.0°F21.1°C 61.3°F16.3°C 74% 4.0 mph S6.4 kmh S 8.0 mph12.9 kmh 29.51 in999.3 mb 0.00 in0.0 mm 0.00 in0.0 mm 0.00 in0.0 mm
05:26 PM 70.0°F21.1°C 61.3°F16.3°C 74% 3.0 mph S4.8 kmh S 8.0 mph12.9 kmh 29.51 in999.3 mb 0.00 in0.0 mm 0.00 in0.0 mm 0.00 in0.0 mm
05:28 PM 70.0°F21.1°C 61.3°F16.3°C 74% 1.0 mph S1.6 kmh S 8.0 mph12.9 kmh 29.51 in999.3 mb 0.00 in0.0 mm 0.00 in0.0 mm 0.00 in0.0 mm
05:30 PM 70.0°F21.1°C 61.3°F16.3°C 74% 2.0 mph S3.2 kmh S 8.0 mph12.9 kmh 29.51 in999.3 mb 0.00 in0.0 mm 0.00 in0.0 mm 0.00 in0.0 mm
05:32 PM 70.0°F21.1°C 61.3°F16.3°C 74% 3.0 mph S4.8 kmh S 8.0 mph12.9 kmh 29.51 in999.3 mb 0.00 in0.0 mm 0.00 in0.0 mm 0.00 in0.0 mm
05:34 PM 70.0°F21.1°C 61.3°F16.3°C 74% 4.0 mph S6.4 kmh S 4.0 mph6.4 kmh 29.51 in999.3 mb 0.00 in0.0 mm 0.00 in0.0 mm 0.00 in0.0 mm
05:36 PM 69.9°F21.1°C 61.2°F16.2°C 74% 2.0 mph S3.2 kmh S 4.0 mph6.4 kmh 29.52 in999.7 mb 0.00 in0.0 mm 0.00 in0.0 mm 0.00 in0.0 mm
05:38 PM 69.9°F21.1°C 61.2°F16.2°C 74% 2.0 mph S3.2 kmh S 4.0 mph6.4 kmh 29.52 in999.7 mb 0.00 in0.0 mm 0.00 in0.0 mm 0.00 in0.0 mm
05:40 PM 69.9°F21.1°C 61.2°F16.2°C 74% 1.0 mph S1.6 kmh S 4.0 mph6.4 kmh 29.52 in999.7 mb 0.00 in0.0 mm 0.00 in0.0 mm 0.00 in0.0 mm
05:42 PM 69.8°F21.0°C 61.2°F16.2°C 74% 1.0 mph S1.6 kmh S 4.0 mph6.4 kmh 29.53 in1000.0 mb 0.00 in0.0 mm 0.00 in0.0 mm 0.00 in0.0 mm
05:44 PM 69.8°F21.0°C 61.5°F16.4°C 75% Calm Calm 4.0 mph6.4 kmh 29.53 in1000.0 mb 0.00 in0.0 mm 0.00 in0.0 mm 0.00 in0.0 mm
05:46 PM 69.8°F21.0°C 61.5°F16.4°C 75% 1.0 mph S1.6 kmh S 4.0 mph6.4 kmh 29.53 in1000.0 mb 0.00 in0.0 mm 0.00 in0.0 mm 0.00 in0.0 mm
05:48 PM 69.7°F20.9°C 61.4°F16.3°C 75% 1.0 mph S1.6 kmh S 4.0 mph6.4 kmh 29.54 in1000.3 mb 0.00 in0.0 mm 0.00 in0.0 mm 0.00 in0.0 mm
05:50 PM 69.6°F20.9°C 61.3°F16.3°C 75% 1.0 mph S1.6 kmh S 4.0 mph6.4 kmh 29.54 in1000.3 mb 0.00 in0.0 mm 0.00 in0.0 mm 0.00 in0.0 mm
05:51 PM 69.7°F20.9°C 61.4°F16.3°C 75% 2.0 mph S3.2 kmh S 4.0 mph6.4 kmh 29.54 in1000.3 mb 0.00 in0.0 mm 0.00 in0.0 mm 0.00 in0.0 mm
05:54 PM 69.6°F20.9°C 61.3°F16.3°C 75% 1.0 mph S1.6 kmh S 4.0 mph6.4 kmh 29.54 in1000.3 mb 0.00 in0.0 mm 0.00 in0.0 mm 0.00 in0.0 mm
05:56 PM 69.6°F20.9°C 61.3°F16.3°C 75% 2.0 mph S3.2 kmh S 4.0 mph6.4 kmh 29.55 in1000.7 mb 0.00 in0.0 mm 0.00 in0.0 mm 0.00 in0.0 mm
05:58 PM 69.6°F20.9°C 61.3°F16.3°C 75% 2.0 mph S3.2 kmh S 4.0 mph6.4 kmh 29.55 in1000.7 mb 0.00 in0.0 mm 0.00 in0.0 mm 0.00 in0.0 mm
06:00 PM 69.6°F20.9°C 61.3°F16.3°C 75% 1.0 mph S1.6 kmh S 4.0 mph6.4 kmh 29.55 in1000.7 mb 0.00 in0.0 mm 0.00 in0.0 mm 0.00 in0.0 mm
06:02 PM 69.6°F20.9°C 61.3°F16.3°C 75% 1.0 mph S1.6 kmh S 4.0 mph6.4 kmh 29.55 in1000.7 mb 0.00 in0.0 mm 0.00 in0.0 mm 0.00 in0.0 mm
06:04 PM 69.5°F20.8°C 61.2°F16.2°C 75% 1.0 mph S1.6 kmh S 2.0 mph3.2 kmh 29.55 in1000.7 mb 0.00 in0.0 mm 0.00 in0.0 mm 0.00 in0.0 mm
06:06 PM 69.6°F20.9°C 61.3°F16.3°C 75% 1.0 mph S1.6 kmh S 2.0 mph3.2 kmh 29.55 in1000.7 mb 0.00 in0.0 mm 0.00 in0.0 mm 0.00 in0.0 mm
06:08 PM 69.6°F20.9°C 61.3°F16.3°C 75% Calm Calm 2.0 mph3.2 kmh 29.55 in1000.7 mb 0.00 in0.0 mm 0.00 in0.0 mm 0.00 in0.0 mm
06:10 PM 69.5°F20.8°C 61.2°F16.2°C 75% 2.0 mph S3.2 kmh S 3.0 mph4.8 kmh 29.55 in1000.7 mb 0.00 in0.0 mm 0.00 in0.0 mm 0.00 in0.0 mm
06:12 PM 69.5°F20.8°C 61.2°F16.2°C 75% 4.0 mph SSW6.4 kmh SSW 4.0 mph6.4 kmh 29.56 in1001.0 mb 0.00 in0.0 mm 0.00 in0.0 mm 0.00 in0.0 mm
06:14 PM 69.5°F20.8°C 61.2°F16.2°C 75% 3.0 mph SW4.8 kmh SW 5.0 mph8.0 kmh 29.57 in1001.4 mb 0.00 in0.0 mm 0.00 in0.0 mm 0.00 in0.0 mm
06:16 PM 69.4°F20.8°C 61.1°F16.2°C 75% 4.0 mph SW6.4 kmh SW 6.0 mph9.7 kmh 29.58 in1001.7 mb 0.00 in0.0 mm 0.00 in0.0 mm 0.00 in0.0 mm
06:18 PM 69.4°F20.8°C 61.5°F16.4°C 76% 2.0 mph SW3.2 kmh SW 9.0 mph14.5 kmh 29.59 in1002.0 mb 0.00 in0.0 mm 0.00 in0.0 mm 0.00 in0.0 mm
06:20 PM 69.4°F20.8°C 61.5°F16.4°C 76% 2.0 mph WSW3.2 kmh WSW 9.0 mph14.5 kmh 29.59 in1002.0 mb 0.00 in0.0 mm 0.00 in0.0 mm 0.00 in0.0 mm
06:22 PM 69.4°F20.8°C 61.5°F16.4°C 76% 2.0 mph SW3.2 kmh SW 9.0 mph14.5 kmh 29.58 in1001.7 mb 0.00 in0.0 mm 0.00 in0.0 mm 0.00 in0.0 mm
06:24 PM 69.4°F20.8°C 61.5°F16.4°C 76% 5.0 mph SW8.0 kmh SW 9.0 mph14.5 kmh 29.58 in1001.7 mb 0.00 in0.0 mm 0.00 in0.0 mm 0.00 in0.0 mm
06:26 PM 69.5°F20.8°C 61.6°F16.4°C 76% 3.0 mph WSW4.8 kmh WSW 9.0 mph14.5 kmh 29.58 in1001.7 mb 0.00 in0.0 mm 0.00 in0.0 mm 0.00 in0.0 mm
06:28 PM 69.4°F20.8°C 61.5°F16.4°C 76% 5.0 mph SW8.0 kmh SW 9.0 mph14.5 kmh 29.59 in1002.0 mb 0.00 in0.0 mm 0.00 in0.0 mm 0.00 in0.0 mm
06:30 PM 69.4°F20.8°C 61.5°F16.4°C 76% 6.0 mph SW9.7 kmh SW 9.0 mph14.5 kmh 29.59 in1002.0 mb 0.00 in0.0 mm 0.00 in0.0 mm 0.00 in0.0 mm
06:32 PM 69.3°F20.7°C 61.4°F16.3°C 76% 5.0 mph SSW8.0 kmh SSW 9.0 mph14.5 kmh 29.58 in1001.7 mb 0.00 in0.0 mm 0.00 in0.0 mm 0.00 in0.0 mm
06:34 PM 69.4°F20.8°C 61.9°F16.6°C 77% 5.0 mph SSW8.0 kmh SSW 6.0 mph9.7 kmh 29.58 in1001.7 mb 0.00 in0.0 mm 0.00 in0.0 mm 0.00 in0.0 mm
06:36 PM 69.3°F20.7°C 61.8°F16.6°C 77% 4.0 mph SW6.4 kmh SW 6.0 mph9.7 kmh 29.58 in1001.7 mb 0.00 in0.0 mm 0.00 in0.0 mm 0.00 in0.0 mm
06:38 PM 69.3°F20.7°C 61.8°F16.6°C 77% 5.0 mph SW8.0 kmh SW 7.0 mph11.3 kmh 29.59 in1002.0 mb 0.00 in0.0 mm 0.00 in0.0 mm 0.00 in0.0 mm
06:40 PM 69.2°F20.7°C 61.7°F16.5°C 77% 3.0 mph SW4.8 kmh SW 7.0 mph11.3 kmh 29.59 in1002.0 mb 0.00 in0.0 mm 0.00 in0.0 mm 0.00 in0.0 mm
06:42 PM 69.2°F20.7°C 61.7°F16.5°C 77% 4.0 mph S6.4 kmh S 7.0 mph11.3 kmh 29.58 in1001.7 mb 0.00 in0.0 mm 0.00 in0.0 mm 0.00 in0.0 mm
06:44 PM 69.1°F20.6°C 61.6°F16.4°C 77% 2.0 mph S3.2 kmh S 7.0 mph11.3 kmh 29.58 in1001.7 mb 0.00 in0.0 mm 0.00 in0.0 mm 0.00 in0.0 mm
06:46 PM 69.1°F20.6°C 61.6°F16.4°C 77% 6.0 mph S9.7 kmh S 7.0 mph11.3 kmh 29.58 in1001.7 mb 0.00 in0.0 mm 0.00 in0.0 mm 0.00 in0.0 mm
06:48 PM 69.1°F20.6°C 61.6°F16.4°C 77% 3.0 mph S4.8 kmh S 7.0 mph11.3 kmh 29.58 in1001.7 mb 0.00 in0.0 mm 0.00 in0.0 mm 0.00 in0.0 mm
06:50 PM 69.1°F20.6°C 61.6°F16.4°C 77% 5.0 mph SSE8.0 kmh SSE 7.0 mph11.3 kmh 29.58 in1001.7 mb 0.00 in0.0 mm 0.00 in0.0 mm 0.00 in0.0 mm
06:52 PM 69.0°F20.6°C 61.5°F16.4°C 77% 5.0 mph S8.0 kmh S 8.0 mph12.9 kmh 29.59 in1002.0 mb 0.00 in0.0 mm 0.00 in0.0 mm 0.00 in0.0 mm
06:54 PM 68.9°F20.5°C 61.4°F16.3°C 77% 4.0 mph SSE6.4 kmh SSE 8.0 mph12.9 kmh 29.59 in1002.0 mb 0.00 in0.0 mm 0.00 in0.0 mm 0.00 in0.0 mm
06:56 PM 68.9°F20.5°C 61.4°F16.3°C 77% 3.0 mph S4.8 kmh S 8.0 mph12.9 kmh 29.59 in1002.0 mb 0.00 in0.0 mm 0.00 in0.0 mm 0.00 in0.0 mm
06:58 PM 68.8°F20.4°C 61.3°F16.3°C 77% 6.0 mph S9.7 kmh S 8.0 mph12.9 kmh 29.59 in1002.0 mb 0.00 in0.0 mm 0.00 in0.0 mm 0.00 in0.0 mm
07:00 PM 68.8°F20.4°C 61.7°F16.5°C 78% 4.0 mph S6.4 kmh S 8.0 mph12.9 kmh 29.59 in1002.0 mb 0.00 in0.0 mm 0.00 in0.0 mm 0.00 in0.0 mm
07:02 PM 68.8°F20.4°C 61.7°F16.5°C 78% 2.0 mph S3.2 kmh S 8.0 mph12.9 kmh 29.60 in1002.4 mb 0.00 in0.0 mm 0.00 in0.0 mm 0.00 in0.0 mm
07:04 PM 68.7°F20.4°C 61.6°F16.4°C 78% 3.0 mph S4.8 kmh S 6.0 mph9.7 kmh 29.59 in1002.0 mb 0.00 in0.0 mm 0.00 in0.0 mm 0.00 in0.0 mm
07:06 PM 68.7°F20.4°C 61.6°F16.4°C 78% 2.0 mph S3.2 kmh S 6.0 mph9.7 kmh 29.60 in1002.4 mb 0.00 in0.0 mm 0.00 in0.0 mm 0.00 in0.0 mm
07:08 PM 68.7°F20.4°C 61.6°F16.4°C 78% 2.0 mph S3.2 kmh S 6.0 mph9.7 kmh 29.60 in1002.4 mb 0.00 in0.0 mm 0.00 in0.0 mm 0.00 in0.0 mm
07:10 PM 68.6°F20.3°C 61.5°F16.4°C 78% 2.0 mph S3.2 kmh S 6.0 mph9.7 kmh 29.60 in1002.4 mb 0.00 in0.0 mm 0.00 in0.0 mm 0.00 in0.0 mm
07:12 PM 68.5°F20.3°C 61.4°F16.3°C 78% 1.0 mph S1.6 kmh S 6.0 mph9.7 kmh 29.61 in1002.7 mb 0.00 in0.0 mm 0.00 in0.0 mm 0.00 in0.0 mm
07:14 PM 68.5°F20.3°C 61.4°F16.3°C 78% Calm Calm 6.0 mph9.7 kmh 29.61 in1002.7 mb 0.00 in0.0 mm 0.00 in0.0 mm 0.00 in0.0 mm
07:16 PM 68.4°F20.2°C 61.3°F16.3°C 78% 2.0 mph S3.2 kmh S 6.0 mph9.7 kmh 29.61 in1002.7 mb 0.00 in0.0 mm 0.00 in0.0 mm 0.00 in0.0 mm
07:18 PM 68.3°F20.2°C 61.2°F16.2°C 78% 2.0 mph S3.2 kmh S 6.0 mph9.7 kmh 29.61 in1002.7 mb 0.00 in0.0 mm 0.00 in0.0 mm 0.00 in0.0 mm
07:20 PM 68.2°F20.1°C 61.1°F16.2°C 78% 3.0 mph SSW4.8 kmh SSW 6.0 mph9.7 kmh 29.62 in1003.0 mb 0.00 in0.0 mm 0.00 in0.0 mm 0.00 in0.0 mm
07:22 PM 68.1°F20.1°C 61.4°F16.3°C 79% 3.0 mph SSW4.8 kmh SSW 6.0 mph9.7 kmh 29.61 in1002.7 mb 0.00 in0.0 mm 0.00 in0.0 mm 0.00 in0.0 mm
07:24 PM 68.0°F20.0°C 61.3°F16.3°C 79% 6.0 mph W9.7 kmh W 6.0 mph9.7 kmh 29.62 in1003.0 mb 0.00 in0.0 mm 0.00 in0.0 mm 0.00 in0.0 mm
07:26 PM 68.0°F20.0°C 61.3°F16.3°C 79% 4.0 mph W6.4 kmh W 6.0 mph9.7 kmh 29.62 in1003.0 mb 0.00 in0.0 mm 0.00 in0.0 mm 0.00 in0.0 mm
07:28 PM 67.8°F19.9°C 61.1°F16.2°C 79% 5.0 mph NW8.0 kmh NW 7.0 mph11.3 kmh 29.63 in1003.4 mb 0.00 in0.0 mm 0.00 in0.0 mm 0.00 in0.0 mm
07:30 PM 67.9°F19.9°C 60.8°F16.0°C 78% 7.0 mph W11.3 kmh W 10.0 mph16.1 kmh 29.64 in1003.7 mb 0.00 in0.0 mm 0.00 in0.0 mm 0.00 in0.0 mm
07:32 PM 68.5°F20.3°C 59.5°F15.3°C 73% 13.0 mph NW20.9 kmh NW 25.0 mph40.2 kmh 29.64 in1003.7 mb 0.00 in0.0 mm 0.00 in0.0 mm 0.00 in0.0 mm
07:34 PM 68.7°F20.4°C 58.1°F14.5°C 69% 12.0 mph WNW19.3 kmh WNW 25.0 mph40.2 kmh 29.65 in1004.1 mb 0.00 in0.0 mm 0.00 in0.0 mm 0.00 in0.0 mm
07:35 PM 68.8°F20.4°C 55.7°F13.2°C 63% 16.0 mph NNW25.7 kmh NNW 25.0 mph40.2 kmh 29.65 in1004.1 mb 0.00 in0.0 mm 0.00 in0.0 mm 0.00 in0.0 mm
07:38 PM 68.7°F20.4°C 53.3°F11.8°C 58% 9.0 mph NNW14.5 kmh NNW 25.0 mph40.2 kmh 29.65 in1004.1 mb 0.00 in0.0 mm 0.00 in0.0 mm 0.00 in0.0 mm
07:40 PM 68.5°F20.3°C 52.7°F11.5°C 57% 10.0 mph NW16.1 kmh NW 25.0 mph40.2 kmh 29.65 in1004.1 mb 0.00 in0.0 mm 0.00 in0.0 mm 0.00 in0.0 mm
07:42 PM 68.4°F20.2°C 52.6°F11.4°C 57% 11.0 mph NW17.7 kmh NW 25.0 mph40.2 kmh 29.65 in1004.1 mb 0.00 in0.0 mm 0.00 in0.0 mm 0.00 in0.0 mm
07:44 PM 68.3°F20.2°C 49.0°F9.4°C 50% 14.0 mph NW22.5 kmh NW 25.0 mph40.2 kmh 29.66 in1004.4 mb 0.00 in0.0 mm 0.00 in0.0 mm 0.00 in0.0 mm
07:46 PM 68.2°F20.1°C 48.3°F9.1°C 49% 22.0 mph NW35.4 kmh NW 25.0 mph40.2 kmh 29.67 in1004.7 mb 0.00 in0.0 mm 0.00 in0.0 mm 0.00 in0.0 mm
07:48 PM 68.1°F20.1°C 44.8°F7.1°C 43% 15.0 mph NW24.1 kmh NW 25.0 mph40.2 kmh 29.67 in1004.7 mb 0.00 in0.0 mm 0.00 in0.0 mm 0.00 in0.0 mm
07:50 PM 67.9°F19.9°C 44.0°F6.7°C 42% 11.0 mph NW17.7 kmh NW 25.0 mph40.2 kmh 29.68 in1005.1 mb 0.00 in0.0 mm 0.00 in0.0 mm 0.00 in0.0 mm
07:52 PM 67.7°F19.8°C 41.2°F5.1°C 38% 12.0 mph NNW19.3 kmh NNW 25.0 mph40.2 kmh 29.68 in1005.1 mb 0.00 in0.0 mm 0.00 in0.0 mm 0.00 in0.0 mm
07:54 PM 67.4°F19.7°C 40.9°F4.9°C 38% 13.0 mph NW20.9 kmh NW 25.0 mph40.2 kmh 29.68 in1005.1 mb 0.00 in0.0 mm 0.00 in0.0 mm 0.00 in0.0 mm
07:56 PM 67.2°F19.6°C 40.8°F4.9°C 38% 6.0 mph NW9.7 kmh NW 25.0 mph40.2 kmh 29.69 in1005.4 mb 0.00 in0.0 mm 0.00 in0.0 mm 0.00 in0.0 mm
07:58 PM 66.9°F19.4°C 38.4°F3.6°C 35% 18.0 mph NW29.0 kmh NW 25.0 mph40.2 kmh 29.69 in1005.4 mb 0.00 in0.0 mm 0.00 in0.0 mm 0.00 in0.0 mm
08:00 PM 66.4°F19.1°C 34.1°F1.2°C 30% 17.0 mph WNW27.4 kmh WNW 25.0 mph40.2 kmh 29.69 in1005.4 mb 0.00 in0.0 mm 0.00 in0.0 mm 0.00 in0.0 mm
08:02 PM 66.0°F18.9°C 32.9°F0.5°C 29% 12.0 mph NW19.3 kmh NW 25.0 mph40.2 kmh 29.70 in1005.8 mb 0.00 in0.0 mm 0.00 in0.0 mm 0.00 in0.0 mm
08:04 PM 65.8°F18.8°C 31.8°F-0.1°C 28% 13.0 mph WNW20.9 kmh WNW 18.0 mph29.0 kmh 29.70 in1005.8 mb 0.00 in0.0 mm 0.00 in0.0 mm 0.00 in0.0 mm
08:06 PM 65.5°F18.6°C 31.6°F-0.2°C 28% 16.0 mph WNW25.7 kmh WNW 20.0 mph32.2 kmh 29.70 in1005.8 mb 0.00 in0.0 mm 0.00 in0.0 mm 0.00 in0.0 mm
08:08 PM 65.3°F18.5°C 31.4°F-0.3°C 28% 13.0 mph NW20.9 kmh NW 20.0 mph32.2 kmh 29.71 in1006.1 mb 0.00 in0.0 mm 0.00 in0.0 mm 0.00 in0.0 mm
08:10 PM 65.2°F18.4°C 32.2°F0.1°C 29% 17.0 mph NW27.4 kmh NW 20.0 mph32.2 kmh 29.71 in1006.1 mb 0.00 in0.0 mm 0.00 in0.0 mm 0.00 in0.0 mm
08:12 PM 65.1°F18.4°C 32.9°F0.5°C 30% 10.0 mph NW16.1 kmh NW 20.0 mph32.2 kmh 29.72 in1006.4 mb 0.00 in0.0 mm 0.00 in0.0 mm 0.00 in0.0 mm
08:14 PM 65.0°F18.3°C 32.0°F0.0°C 29% 12.0 mph WNW19.3 kmh WNW 20.0 mph32.2 kmh 29.72 in1006.4 mb 0.00 in0.0 mm 0.00 in0.0 mm 0.00 in0.0 mm
08:16 PM 64.9°F18.3°C 31.9°F-0.1°C 29% 17.0 mph NW27.4 kmh NW 20.0 mph32.2 kmh 29.72 in1006.4 mb 0.00 in0.0 mm 0.00 in0.0 mm 0.00 in0.0 mm
08:18 PM 64.8°F18.2°C 31.8°F-0.1°C 29% 6.0 mph NW9.7 kmh NW 20.0 mph32.2 kmh 29.72 in1006.4 mb 0.00 in0.0 mm 0.00 in0.0 mm 0.00 in0.0 mm
08:20 PM 64.8°F18.2°C 31.0°F-0.6°C 28% 6.0 mph NW9.7 kmh NW 20.0 mph32.2 kmh 29.73 in1006.8 mb 0.00 in0.0 mm 0.00 in0.0 mm 0.00 in0.0 mm
08:22 PM 64.7°F18.2°C 30.9°F-0.6°C 28% 12.0 mph NW19.3 kmh NW 20.0 mph32.2 kmh 29.73 in1006.8 mb 0.00 in0.0 mm 0.00 in0.0 mm 0.00 in0.0 mm
08:24 PM 64.7°F18.2°C 30.9°F-0.6°C 28% 12.0 mph NW19.3 kmh NW 20.0 mph32.2 kmh 29.73 in1006.8 mb 0.00 in0.0 mm 0.00 in0.0 mm 0.00 in0.0 mm
08:26 PM 64.6°F18.1°C 29.9°F-1.2°C 27% 10.0 mph NW16.1 kmh NW 20.0 mph32.2 kmh 29.73 in1006.8 mb 0.00 in0.0 mm 0.00 in0.0 mm 0.00 in0.0 mm
08:28 PM 64.5°F18.1°C 30.7°F-0.7°C 28% 16.0 mph NW25.7 kmh NW 20.0 mph32.2 kmh 29.73 in1006.8 mb 0.00 in0.0 mm 0.00 in0.0 mm 0.00 in0.0 mm
08:30 PM 64.4°F18.0°C 29.7°F-1.3°C 27% 11.0 mph NNW17.7 kmh NNW 20.0 mph32.2 kmh 29.73 in1006.8 mb 0.00 in0.0 mm 0.00 in0.0 mm 0.00 in0.0 mm
08:32 PM 64.4°F18.0°C 29.7°F-1.3°C 27% 14.0 mph NNW22.5 kmh NNW 20.0 mph32.2 kmh 29.74 in1007.1 mb 0.00 in0.0 mm 0.00 in0.0 mm 0.00 in0.0 mm
08:34 PM 64.4°F18.0°C 28.8°F-1.8°C 26% 11.0 mph NW17.7 kmh NW 20.0 mph32.2 kmh 29.74 in1007.1 mb 0.00 in0.0 mm 0.00 in0.0 mm 0.00 in0.0 mm
08:36 PM 64.4°F18.0°C 28.8°F-1.8°C 26% 9.0 mph NW14.5 kmh NW 21.0 mph33.8 kmh 29.74 in1007.1 mb 0.00 in0.0 mm 0.00 in0.0 mm 0.00 in0.0 mm
08:38 PM 64.3°F17.9°C 27.8°F-2.3°C 25% 8.0 mph NW12.9 kmh NW 21.0 mph33.8 kmh 29.74 in1007.1 mb 0.00 in0.0 mm 0.00 in0.0 mm 0.00 in0.0 mm
08:40 PM 64.2°F17.9°C 27.7°F-2.4°C 25% 9.0 mph NW14.5 kmh NW 21.0 mph33.8 kmh 29.74 in1007.1 mb 0.00 in0.0 mm 0.00 in0.0 mm 0.00 in0.0 mm
08:42 PM 64.2°F17.9°C 28.6°F-1.9°C 26% 11.0 mph NW17.7 kmh NW 21.0 mph33.8 kmh 29.75 in1007.5 mb 0.00 in0.0 mm 0.00 in0.0 mm 0.00 in0.0 mm
08:44 PM 64.1°F17.8°C 26.6°F-3.0°C 24% 15.0 mph N24.1 kmh N 21.0 mph33.8 kmh 29.74 in1007.1 mb 0.00 in0.0 mm 0.00 in0.0 mm 0.00 in0.0 mm
08:46 PM 64.2°F17.9°C 25.7°F-3.5°C 23% 17.0 mph NW27.4 kmh NW 21.0 mph33.8 kmh 29.75 in1007.5 mb 0.00 in0.0 mm 0.00 in0.0 mm 0.00 in0.0 mm
08:48 PM 64.2°F17.9°C 25.7°F-3.5°C 23% 13.0 mph NNW20.9 kmh NNW 21.0 mph33.8 kmh 29.74 in1007.1 mb 0.00 in0.0 mm 0.00 in0.0 mm 0.00 in0.0 mm
08:50 PM 64.2°F17.9°C 25.7°F-3.5°C 23% 10.0 mph NW16.1 kmh NW 21.0 mph33.8 kmh 29.74 in1007.1 mb 0.00 in0.0 mm 0.00 in0.0 mm 0.00 in0.0 mm
08:52 PM 64.1°F17.8°C 25.6°F-3.6°C 23% 9.0 mph NW14.5 kmh NW 21.0 mph33.8 kmh 29.74 in1007.1 mb 0.00 in0.0 mm 0.00 in0.0 mm 0.00 in0.0 mm
08:54 PM 64.0°F17.8°C 24.4°F-4.2°C 22% 9.0 mph WNW14.5 kmh WNW 21.0 mph33.8 kmh 29.74 in1007.1 mb 0.00 in0.0 mm 0.00 in0.0 mm 0.00 in0.0 mm
08:56 PM 64.0°F17.8°C 24.4°F-4.2°C 22% 16.0 mph NW25.7 kmh NW 21.0 mph33.8 kmh 29.74 in1007.1 mb 0.00 in0.0 mm 0.00 in0.0 mm 0.00 in0.0 mm
08:58 PM 64.0°F17.8°C 24.4°F-4.2°C 22% 8.0 mph NW12.9 kmh NW 21.0 mph33.8 kmh 29.75 in1007.5 mb 0.00 in0.0 mm 0.00 in0.0 mm 0.00 in0.0 mm
09:00 PM 63.9°F17.7°C 24.3°F-4.3°C 22% 16.0 mph NW25.7 kmh NW 21.0 mph33.8 kmh 29.75 in1007.5 mb 0.00 in0.0 mm 0.00 in0.0 mm 0.00 in0.0 mm
09:02 PM 63.9°F17.7°C 23.2°F-4.9°C 21% 11.0 mph NW17.7 kmh NW 21.0 mph33.8 kmh 29.75 in1007.5 mb 0.00 in0.0 mm 0.00 in0.0 mm 0.00 in0.0 mm
09:04 PM 63.8°F17.7°C 23.2°F-4.9°C 21% 14.0 mph WNW22.5 kmh WNW 15.0 mph24.1 kmh 29.75 in1007.5 mb 0.00 in0.0 mm 0.00 in0.0 mm 0.00 in0.0 mm
09:06 PM 63.7°F17.6°C 23.1°F-4.9°C 21% 14.0 mph NW22.5 kmh NW 17.0 mph27.4 kmh 29.76 in1007.8 mb 0.00 in0.0 mm 0.00 in0.0 mm 0.00 in0.0 mm
09:08 PM 63.6°F17.6°C 23.0°F-5.0°C 21% 13.0 mph NW20.9 kmh NW 17.0 mph27.4 kmh 29.76 in1007.8 mb 0.00 in0.0 mm 0.00 in0.0 mm 0.00 in0.0 mm
09:10 PM 63.6°F17.6°C 23.0°F-5.0°C 21% 8.0 mph WNW12.9 kmh WNW 17.0 mph27.4 kmh 29.76 in1007.8 mb 0.00 in0.0 mm 0.00 in0.0 mm 0.00 in0.0 mm
09:12 PM 63.5°F17.5°C 24.0°F-4.4°C 22% 14.0 mph WNW22.5 kmh WNW 17.0 mph27.4 kmh 29.76 in1007.8 mb 0.00 in0.0 mm 0.00 in0.0 mm 0.00 in0.0 mm
09:14 PM 63.4°F17.4°C 22.8°F-5.1°C 21% 13.0 mph W20.9 kmh W 17.0 mph27.4 kmh 29.76 in1007.8 mb 0.00 in0.0 mm 0.00 in0.0 mm 0.00 in0.0 mm
09:16 PM 63.4°F17.4°C 22.8°F-5.1°C 21% 10.0 mph WNW16.1 kmh WNW 17.0 mph27.4 kmh 29.76 in1007.8 mb 0.00 in0.0 mm 0.00 in0.0 mm 0.00 in0.0 mm
09:18 PM 63.3°F17.4°C 22.7°F-5.2°C 21% 10.0 mph NW16.1 kmh NW 17.0 mph27.4 kmh 29.76 in1007.8 mb 0.00 in0.0 mm 0.00 in0.0 mm 0.00 in0.0 mm
09:20 PM 63.3°F17.4°C 22.7°F-5.2°C 21% 2.0 mph W3.2 kmh W 17.0 mph27.4 kmh 29.77 in1008.1 mb 0.00 in0.0 mm 0.00 in0.0 mm 0.00 in0.0 mm
09:22 PM 63.2°F17.3°C 22.7°F-5.2°C 21% 13.0 mph WNW20.9 kmh WNW 17.0 mph27.4 kmh 29.77 in1008.1 mb 0.00 in0.0 mm 0.00 in0.0 mm 0.00 in0.0 mm
09:24 PM 63.3°F17.4°C 21.6°F-5.8°C 20% 5.0 mph WNW8.0 kmh WNW 17.0 mph27.4 kmh 29.77 in1008.1 mb 0.00 in0.0 mm 0.00 in0.0 mm 0.00 in0.0 mm
09:26 PM 63.2°F17.3°C 21.5°F-5.8°C 20% 8.0 mph W12.9 kmh W 17.0 mph27.4 kmh 29.77 in1008.1 mb 0.00 in0.0 mm 0.00 in0.0 mm 0.00 in0.0 mm
09:28 PM 63.2°F17.3°C 22.7°F-5.2°C 21% 4.0 mph W6.4 kmh W 17.0 mph27.4 kmh 29.77 in1008.1 mb 0.00 in0.0 mm 0.00 in0.0 mm 0.00 in0.0 mm
09:30 PM 63.1°F17.3°C 21.4°F-5.9°C 20% 8.0 mph NW12.9 kmh NW 17.0 mph27.4 kmh 29.77 in1008.1 mb 0.00 in0.0 mm 0.00 in0.0 mm 0.00 in0.0 mm
09:32 PM 63.0°F17.2°C 20.1°F-6.6°C 19% 8.0 mph W12.9 kmh W 17.0 mph27.4 kmh 29.78 in1008.5 mb 0.00 in0.0 mm 0.00 in0.0 mm 0.00 in0.0 mm
09:34 PM 63.0°F17.2°C 21.3°F-5.9°C 20% 8.0 mph WSW12.9 kmh WSW 12.0 mph19.3 kmh 29.78 in1008.5 mb 0.00 in0.0 mm 0.00 in0.0 mm 0.00 in0.0 mm
09:36 PM 62.9°F17.2°C 20.0°F-6.7°C 19% 6.0 mph NW9.7 kmh NW 12.0 mph19.3 kmh 29.78 in1008.5 mb 0.00 in0.0 mm 0.00 in0.0 mm 0.00 in0.0 mm
09:38 PM 62.9°F17.2°C 20.0°F-6.7°C 19% 12.0 mph NW19.3 kmh NW 13.0 mph20.9 kmh 29.79 in1008.8 mb 0.00 in0.0 mm 0.00 in0.0 mm 0.00 in0.0 mm
09:40 PM 62.9°F17.2°C 18.8°F-7.3°C 18% 12.0 mph WNW19.3 kmh WNW 15.0 mph24.1 kmh 29.79 in1008.8 mb 0.00 in0.0 mm 0.00 in0.0 mm 0.00 in0.0 mm
09:42 PM 62.9°F17.2°C 17.5°F-8.1°C 17% 7.0 mph WNW11.3 kmh WNW 16.0 mph25.7 kmh 29.79 in1008.8 mb 0.00 in0.0 mm 0.00 in0.0 mm 0.00 in0.0 mm
09:43 PM 63.0°F17.2°C 17.5°F-8.1°C 17% 11.0 mph WNW17.7 kmh WNW 16.0 mph25.7 kmh 29.79 in1008.8 mb 0.00 in0.0 mm 0.00 in0.0 mm 0.00 in0.0 mm
09:46 PM 62.9°F17.2°C 17.5°F-8.1°C 17% 9.0 mph NW14.5 kmh NW 16.0 mph25.7 kmh 29.80 in1009.1 mb 0.00 in0.0 mm 0.00 in0.0 mm 0.00 in0.0 mm
09:48 PM 62.9°F17.2°C 16.1°F-8.8°C 16% 16.0 mph NW25.7 kmh NW 18.0 mph29.0 kmh 29.80 in1009.1 mb 0.00 in0.0 mm 0.00 in0.0 mm 0.00 in0.0 mm
09:50 PM 62.9°F17.2°C 16.1°F-8.8°C 16% 13.0 mph NW20.9 kmh NW 19.0 mph30.6 kmh 29.80 in1009.1 mb 0.00 in0.0 mm 0.00 in0.0 mm 0.00 in0.0 mm
09:52 PM 62.9°F17.2°C 16.1°F-8.8°C 16% 19.0 mph NW30.6 kmh NW 19.0 mph30.6 kmh 29.80 in1009.1 mb 0.00 in0.0 mm 0.00 in0.0 mm 0.00 in0.0 mm
09:54 PM 62.8°F17.1°C 12.9°F-10.6°C 14% 11.0 mph W17.7 kmh W 19.0 mph30.6 kmh 29.80 in1009.1 mb 0.00 in0.0 mm 0.00 in0.0 mm 0.00 in0.0 mm
09:56 PM 62.8°F17.1°C 14.5°F-9.7°C 15% 9.0 mph NW14.5 kmh NW 19.0 mph30.6 kmh 29.80 in1009.1 mb 0.00 in0.0 mm 0.00 in0.0 mm 0.00 in0.0 mm
09:58 PM 62.7°F17.1°C 14.4°F-9.8°C 15% 13.0 mph NW20.9 kmh NW 19.0 mph30.6 kmh 29.80 in1009.1 mb 0.00 in0.0 mm 0.00 in0.0 mm 0.00 in0.0 mm
10:00 PM 62.7°F17.1°C 14.4°F-9.8°C 15% 5.0 mph WSW8.0 kmh WSW 19.0 mph30.6 kmh 29.81 in1009.5 mb 0.00 in0.0 mm 0.00 in0.0 mm 0.00 in0.0 mm
10:02 PM 62.6°F17.0°C 12.8°F-10.7°C 14% 8.0 mph W12.9 kmh W 19.0 mph30.6 kmh 29.81 in1009.5 mb 0.00 in0.0 mm 0.00 in0.0 mm 0.00 in0.0 mm
10:03 PM 62.6°F17.0°C 14.3°F-9.8°C 15% 16.0 mph NW25.7 kmh NW 16.0 mph25.7 kmh 29.81 in1009.5 mb 0.00 in0.0 mm 0.00 in0.0 mm 0.00 in0.0 mm
10:06 PM 62.5°F16.9°C 14.3°F-9.8°C 15% 4.0 mph WNW6.4 kmh WNW 16.0 mph25.7 kmh 29.82 in1009.8 mb 0.00 in0.0 mm 0.00 in0.0 mm 0.00 in0.0 mm
10:08 PM 62.4°F16.9°C 14.2°F-9.9°C 15% 7.0 mph NW11.3 kmh NW 16.0 mph25.7 kmh 29.82 in1009.8 mb 0.00 in0.0 mm 0.00 in0.0 mm 0.00 in0.0 mm
10:09 PM 62.3°F16.8°C 12.5°F-10.8°C 14% 12.0 mph NW19.3 kmh NW 16.0 mph25.7 kmh 29.82 in1009.8 mb 0.00 in0.0 mm 0.00 in0.0 mm 0.00 in0.0 mm
10:12 PM 62.2°F16.8°C 12.4°F-10.9°C 14% 8.0 mph WNW12.9 kmh WNW 16.0 mph25.7 kmh 29.82 in1009.8 mb 0.00 in0.0 mm 0.00 in0.0 mm 0.00 in0.0 mm
10:13 PM 62.2°F16.8°C 14.0°F-10.0°C 15% 7.0 mph WNW11.3 kmh WNW 16.0 mph25.7 kmh 29.82 in1009.8 mb 0.00 in0.0 mm 0.00 in0.0 mm 0.00 in0.0 mm
10:16 PM 62.0°F16.7°C 13.9°F-10.1°C 15% 5.0 mph NW8.0 kmh NW 16.0 mph25.7 kmh 29.83 in1010.2 mb 0.00 in0.0 mm 0.00 in0.0 mm 0.00 in0.0 mm
10:18 PM 61.9°F16.6°C 13.8°F-10.1°C 15% 7.0 mph WNW11.3 kmh WNW 16.0 mph25.7 kmh 29.83 in1010.2 mb 0.00 in0.0 mm 0.00 in0.0 mm 0.00 in0.0 mm
10:20 PM 61.8°F16.6°C 13.7°F-10.2°C 15% 8.0 mph WNW12.9 kmh WNW 16.0 mph25.7 kmh 29.83 in1010.2 mb 0.00 in0.0 mm 0.00 in0.0 mm 0.00 in0.0 mm
10:22 PM 61.7°F16.5°C 13.6°F-10.2°C 15% 5.0 mph WNW8.0 kmh WNW 16.0 mph25.7 kmh 29.83 in1010.2 mb 0.00 in0.0 mm 0.00 in0.0 mm 0.00 in0.0 mm
10:24 PM 61.7°F16.5°C 12.1°F-11.1°C 14% 8.0 mph WNW12.9 kmh WNW 16.0 mph25.7 kmh 29.83 in1010.2 mb 0.00 in0.0 mm 0.00 in0.0 mm 0.00 in0.0 mm
10:26 PM 61.7°F16.5°C 12.1°F-11.1°C 14% 9.0 mph NW14.5 kmh NW 16.0 mph25.7 kmh 29.83 in1010.2 mb 0.00 in0.0 mm 0.00 in0.0 mm 0.00 in0.0 mm
10:28 PM 61.6°F16.4°C 13.5°F-10.3°C 15% 9.0 mph WNW14.5 kmh WNW 16.0 mph25.7 kmh 29.84 in1010.5 mb 0.00 in0.0 mm 0.00 in0.0 mm 0.00 in0.0 mm
10:30 PM 61.6°F16.4°C 12.0°F-11.1°C 14% 9.0 mph NW14.5 kmh NW 16.0 mph25.7 kmh 29.84 in1010.5 mb 0.00 in0.0 mm 0.00 in0.0 mm 0.00 in0.0 mm
10:32 PM 61.5°F16.4°C 13.5°F-10.3°C 15% 3.0 mph NW4.8 kmh NW 16.0 mph25.7 kmh 29.84 in1010.5 mb 0.00 in0.0 mm 0.00 in0.0 mm 0.00 in0.0 mm
10:34 PM 61.4°F16.3°C 11.8°F-11.2°C 14% 9.0 mph WNW14.5 kmh WNW 15.0 mph24.1 kmh 29.84 in1010.5 mb 0.00 in0.0 mm 0.00 in0.0 mm 0.00 in0.0 mm
10:36 PM 61.3°F16.3°C 11.7°F-11.3°C 14% 7.0 mph WNW11.3 kmh WNW 15.0 mph24.1 kmh 29.84 in1010.5 mb 0.00 in0.0 mm 0.00 in0.0 mm 0.00 in0.0 mm
10:38 PM 61.3°F16.3°C 11.7°F-11.3°C 14% 9.0 mph WNW14.5 kmh WNW 15.0 mph24.1 kmh 29.84 in1010.5 mb 0.00 in0.0 mm 0.00 in0.0 mm 0.00 in0.0 mm
10:40 PM 61.2°F16.2°C 11.7°F-11.3°C 14% 8.0 mph WNW12.9 kmh WNW 16.0 mph25.7 kmh 29.84 in1010.5 mb 0.00 in0.0 mm 0.00 in0.0 mm 0.00 in0.0 mm
10:42 PM 61.2°F16.2°C 11.7°F-11.3°C 14% 5.0 mph WNW8.0 kmh WNW 16.0 mph25.7 kmh 29.85 in1010.8 mb 0.00 in0.0 mm 0.00 in0.0 mm 0.00 in0.0 mm
10:44 PM 61.0°F16.1°C 11.5°F-11.4°C 14% 5.0 mph NW8.0 kmh NW 16.0 mph25.7 kmh 29.85 in1010.8 mb 0.00 in0.0 mm 0.00 in0.0 mm 0.00 in0.0 mm
10:46 PM 61.0°F16.1°C 11.5°F-11.4°C 14% 8.0 mph W12.9 kmh W 16.0 mph25.7 kmh 29.85 in1010.8 mb 0.00 in0.0 mm 0.00 in0.0 mm 0.00 in0.0 mm
10:48 PM 60.8°F16.0°C 12.9°F-10.6°C 15% 11.0 mph WNW17.7 kmh WNW 16.0 mph25.7 kmh 29.85 in1010.8 mb 0.00 in0.0 mm 0.00 in0.0 mm 0.00 in0.0 mm
10:50 PM 60.7°F15.9°C 12.8°F-10.7°C 15% 12.0 mph W19.3 kmh W 16.0 mph25.7 kmh 29.85 in1010.8 mb 0.00 in0.0 mm 0.00 in0.0 mm 0.00 in0.0 mm
10:52 PM 60.7°F15.9°C 11.3°F-11.5°C 14% 8.0 mph WNW12.9 kmh WNW 16.0 mph25.7 kmh 29.86 in1011.2 mb 0.00 in0.0 mm 0.00 in0.0 mm 0.00 in0.0 mm
10:54 PM 60.6°F15.9°C 12.7°F-10.7°C 15% 8.0 mph W12.9 kmh W 16.0 mph25.7 kmh 29.86 in1011.2 mb 0.00 in0.0 mm 0.00 in0.0 mm 0.00 in0.0 mm
10:56 PM 60.5°F15.8°C 11.1°F-11.6°C 14% 11.0 mph NW17.7 kmh NW 16.0 mph25.7 kmh 29.86 in1011.2 mb 0.00 in0.0 mm 0.00 in0.0 mm 0.00 in0.0 mm
10:58 PM 60.5°F15.8°C 12.6°F-10.8°C 15% 10.0 mph NW16.1 kmh NW 16.0 mph25.7 kmh 29.86 in1011.2 mb 0.00 in0.0 mm 0.00 in0.0 mm 0.00 in0.0 mm
11:00 PM 60.4°F15.8°C 12.6°F-10.8°C 15% 15.0 mph NW24.1 kmh NW 16.0 mph25.7 kmh 29.86 in1011.2 mb 0.00 in0.0 mm 0.00 in0.0 mm 0.00 in0.0 mm
11:02 PM 60.3°F15.7°C 12.5°F-10.8°C 15% 21.0 mph WNW33.8 kmh WNW 21.0 mph33.8 kmh 29.87 in1011.5 mb 0.00 in0.0 mm 0.00 in0.0 mm 0.00 in0.0 mm
11:04 PM 60.2°F15.7°C 12.4°F-10.9°C 15% 12.0 mph WSW19.3 kmh WSW 18.0 mph29.0 kmh 29.87 in1011.5 mb 0.00 in0.0 mm 0.00 in0.0 mm 0.00 in0.0 mm
11:06 PM 60.1°F15.6°C 12.3°F-10.9°C 15% 14.0 mph WNW22.5 kmh WNW 19.0 mph30.6 kmh 29.87 in1011.5 mb 0.00 in0.0 mm 0.00 in0.0 mm 0.00 in0.0 mm
11:08 PM 59.9°F15.5°C 13.6°F-10.2°C 16% 14.0 mph WNW22.5 kmh WNW 19.0 mph30.6 kmh 29.87 in1011.5 mb 0.00 in0.0 mm 0.00 in0.0 mm 0.00 in0.0 mm
11:10 PM 59.7°F15.4°C 14.8°F-9.6°C 17% 11.0 mph NW17.7 kmh NW 19.0 mph30.6 kmh 29.87 in1011.5 mb 0.00 in0.0 mm 0.00 in0.0 mm 0.00 in0.0 mm
11:12 PM 59.6°F15.3°C 13.4°F-10.3°C 16% 14.0 mph NW22.5 kmh NW 19.0 mph30.6 kmh 29.87 in1011.5 mb 0.00 in0.0 mm 0.00 in0.0 mm 0.00 in0.0 mm
11:14 PM 59.4°F15.2°C 14.6°F-9.7°C 17% 10.0 mph NNW16.1 kmh NNW 19.0 mph30.6 kmh 29.87 in1011.5 mb 0.00 in0.0 mm 0.00 in0.0 mm 0.00 in0.0 mm
11:16 PM 59.3°F15.2°C 14.5°F-9.7°C 17% 12.0 mph NW19.3 kmh NW 19.0 mph30.6 kmh 29.87 in1011.5 mb 0.00 in0.0 mm 0.00 in0.0 mm 0.00 in0.0 mm
11:18 PM 59.1°F15.1°C 15.7°F-9.1°C 18% 8.0 mph NNW12.9 kmh NNW 19.0 mph30.6 kmh 29.87 in1011.5 mb 0.00 in0.0 mm 0.00 in0.0 mm 0.00 in0.0 mm
11:20 PM 58.9°F14.9°C 15.5°F-9.2°C 18% 14.0 mph NW22.5 kmh NW 19.0 mph30.6 kmh 29.88 in1011.9 mb 0.00 in0.0 mm 0.00 in0.0 mm 0.00 in0.0 mm
11:22 PM 58.7°F14.8°C 15.3°F-9.3°C 18% 8.0 mph NW12.9 kmh NW 19.0 mph30.6 kmh 29.88 in1011.9 mb 0.00 in0.0 mm 0.00 in0.0 mm 0.00 in0.0 mm
11:24 PM 58.5°F14.7°C 16.4°F-8.7°C 19% 16.0 mph NW25.7 kmh NW 20.0 mph32.2 kmh 29.88 in1011.9 mb 0.00 in0.0 mm 0.00 in0.0 mm 0.00 in0.0 mm
11:25 PM 58.3°F14.6°C 17.4°F-8.1°C 20% 19.0 mph NW30.6 kmh NW 23.0 mph37.0 kmh 29.88 in1011.9 mb 0.00 in0.0 mm 0.00 in0.0 mm 0.00 in0.0 mm
11:28 PM 58.3°F14.6°C 17.4°F-8.1°C 20% 17.0 mph NNW27.4 kmh NNW 23.0 mph37.0 kmh 29.88 in1011.9 mb 0.00 in0.0 mm 0.00 in0.0 mm 0.00 in0.0 mm
11:30 PM 58.0°F14.4°C 18.3°F-7.6°C 21% 11.0 mph NW17.7 kmh NW 23.0 mph37.0 kmh 29.88 in1011.9 mb 0.00 in0.0 mm 0.00 in0.0 mm 0.00 in0.0 mm
11:32 PM 57.8°F14.3°C 18.1°F-7.7°C 21% 15.0 mph NW24.1 kmh NW 23.0 mph37.0 kmh 29.89 in1012.2 mb 0.00 in0.0 mm 0.00 in0.0 mm 0.00 in0.0 mm
11:34 PM 57.6°F14.2°C 19.1°F-7.2°C 22% 17.0 mph NW27.4 kmh NW 19.0 mph30.6 kmh 29.89 in1012.2 mb 0.00 in0.0 mm 0.00 in0.0 mm 0.00 in0.0 mm
11:36 PM 57.4°F14.1°C 18.9°F-7.3°C 22% 15.0 mph WNW24.1 kmh WNW 19.0 mph30.6 kmh 29.89 in1012.2 mb 0.00 in0.0 mm 0.00 in0.0 mm 0.00 in0.0 mm
11:38 PM 57.3°F14.1°C 19.8°F-6.8°C 23% 14.0 mph NW22.5 kmh NW 19.0 mph30.6 kmh 29.90 in1012.5 mb 0.00 in0.0 mm 0.00 in0.0 mm 0.00 in0.0 mm
11:40 PM 57.1°F13.9°C 19.7°F-6.8°C 23% 4.0 mph NW6.4 kmh NW 19.0 mph30.6 kmh 29.90 in1012.5 mb 0.00 in0.0 mm 0.00 in0.0 mm 0.00 in0.0 mm
11:42 PM 56.9°F13.8°C 20.5°F-6.4°C 24% 8.0 mph NW12.9 kmh NW 19.0 mph30.6 kmh 29.91 in1012.9 mb 0.00 in0.0 mm 0.00 in0.0 mm 0.00 in0.0 mm
11:44 PM 56.6°F13.7°C 21.2°F-6.0°C 25% 16.0 mph NW25.7 kmh NW 19.0 mph30.6 kmh 29.90 in1012.5 mb 0.00 in0.0 mm 0.00 in0.0 mm 0.00 in0.0 mm
11:46 PM 56.4°F13.6°C 21.0°F-6.1°C 25% 8.0 mph NW12.9 kmh NW 19.0 mph30.6 kmh 29.90 in1012.5 mb 0.00 in0.0 mm 0.00 in0.0 mm 0.00 in0.0 mm
11:48 PM 56.2°F13.4°C 21.8°F-5.7°C 26% 21.0 mph NW33.8 kmh NW 21.0 mph33.8 kmh 29.90 in1012.5 mb 0.00 in0.0 mm 0.00 in0.0 mm 0.00 in0.0 mm
11:50 PM 56.0°F13.3°C 21.6°F-5.8°C 26% 10.0 mph NW16.1 kmh NW 21.0 mph33.8 kmh 29.90 in1012.5 mb 0.00 in0.0 mm 0.00 in0.0 mm 0.00 in0.0 mm
11:52 PM 55.8°F13.2°C 22.3°F-5.4°C 27% 10.0 mph NW16.1 kmh NW 21.0 mph33.8 kmh 29.89 in1012.2 mb 0.00 in0.0 mm 0.00 in0.0 mm 0.00 in0.0 mm
11:54 PM 55.6°F13.1°C 22.2°F-5.4°C 27% 6.0 mph NW9.7 kmh NW 21.0 mph33.8 kmh 29.89 in1012.2 mb 0.00 in0.0 mm 0.00 in0.0 mm 0.00 in0.0 mm
11:56 PM 55.5°F13.1°C 23.0°F-5.0°C 28% 9.0 mph WNW14.5 kmh WNW 21.0 mph33.8 kmh 29.90 in1012.5 mb 0.00 in0.0 mm 0.00 in0.0 mm 0.00 in0.0 mm
11:58 PM 55.3°F12.9°C 22.8°F-5.1°C 28% 14.0 mph NW22.5 kmh NW 21.0 mph33.8 kmh 29.91 in1012.9 mb 0.00 in0.0 mm 0.00 in0.0 mm 0.00 in0.0 mm